BAW28Y CYUL-EGKK
Flight info
| Callsign | BAW28Y |
|---|---|
| Flight time | 6h 12m |
| Altitude | 37000 |
| Route | ANTEG DCT OBRON DCT MOBUB DCT EBMOS DCT IMORI DCT KITOP DCT CEFOU N645B RIKAL/M078F370 DCT 53N050W 54N040W 55N030W 55N020W DCT DOGAL DCT BEXET/N0450F370 DCT NORLA DCT FONZU DCT ELRIP DCT OTMET |
| Aircraft | A20N/M-SDE2E3FGHIRWXY/LB1 |
Departure
| Time | 2026-05-07 11:00 |
|---|---|
| Airport | Montreal / Pierre Elliott Trudeau International Airport (CYUL) |
Arrival
| Time | 2026-05-07 17:13 |
|---|---|
| Airport | London Gatwick Airport (EGKK) |
| Time | Latitude | Longitude | Altitude | Speed | Heading |
|---|---|---|---|---|---|
| 2026-05-07 10:19 | 45.45808 | -73.75378 | 105 ft | 0 kts | 88° |
| 2026-05-07 10:44 | 45.45808 | -73.75387 | 105 ft | 2 kts | 88° |
| 2026-05-07 10:45 | 45.45808 | -73.75407 | 105 ft | 2 kts | 89° |
| 2026-05-07 10:45 | 45.45808 | -73.75429 | 104 ft | 2 kts | 88° |
| 2026-05-07 10:45 | 45.45807 | -73.75450 | 104 ft | 2 kts | 89° |
| 2026-05-07 10:45 | 45.45807 | -73.75472 | 103 ft | 2 kts | 88° |
| 2026-05-07 10:46 | 45.45806 | -73.75491 | 103 ft | 1 kts | 88° |
| 2026-05-07 10:46 | 45.45806 | -73.75504 | 103 ft | 1 kts | 62° |
| 2026-05-07 10:46 | 45.45795 | -73.75517 | 103 ft | 2 kts | 7° |
| 2026-05-07 10:46 | 45.45780 | -73.75512 | 103 ft | 2 kts | 315° |
| 2026-05-07 10:47 | 45.45775 | -73.75498 | 103 ft | 0 kts | 275° |
| 2026-05-07 10:47 | 45.45775 | -73.75488 | 103 ft | 1 kts | 269° |
| 2026-05-07 10:47 | 45.45775 | -73.75486 | 103 ft | 0 kts | 270° |
| 2026-05-07 10:50 | 45.45775 | -73.75500 | 103 ft | 3 kts | 270° |
| 2026-05-07 10:50 | 45.45770 | -73.75561 | 103 ft | 7 kts | 258° |
| 2026-05-07 10:50 | 45.45750 | -73.75652 | 103 ft | 11 kts | 252° |
| 2026-05-07 10:51 | 45.45758 | -73.75770 | 103 ft | 13 kts | 298° |
| 2026-05-07 10:51 | 45.45821 | -73.75871 | 103 ft | 13 kts | 316° |
| 2026-05-07 10:51 | 45.45906 | -73.75923 | 105 ft | 12 kts | 346° |
| 2026-05-07 10:51 | 45.45989 | -73.75940 | 106 ft | 11 kts | 359° |
| 2026-05-07 10:52 | 45.46072 | -73.75941 | 106 ft | 11 kts | 359° |
| 2026-05-07 10:52 | 45.46127 | -73.75891 | 106 ft | 10 kts | 78° |
| 2026-05-07 10:52 | 45.46127 | -73.75784 | 106 ft | 11 kts | 88° |
| 2026-05-07 10:52 | 45.46130 | -73.75658 | 106 ft | 14 kts | 88° |
| 2026-05-07 10:53 | 45.46135 | -73.75500 | 106 ft | 17 kts | 87° |
| 2026-05-07 10:53 | 45.46140 | -73.75318 | 106 ft | 18 kts | 87° |
| 2026-05-07 10:53 | 45.46146 | -73.75127 | 106 ft | 19 kts | 87° |
| 2026-05-07 10:53 | 45.46152 | -73.74926 | 108 ft | 20 kts | 86° |
| 2026-05-07 10:54 | 45.46158 | -73.74727 | 110 ft | 20 kts | 88° |
| 2026-05-07 10:54 | 45.46150 | -73.74583 | 109 ft | 11 kts | 121° |
| 2026-05-07 10:54 | 45.46123 | -73.74469 | 109 ft | 13 kts | 88° |
| 2026-05-07 10:54 | 45.46127 | -73.74324 | 109 ft | 15 kts | 88° |
| 2026-05-07 10:55 | 45.46131 | -73.74149 | 106 ft | 19 kts | 88° |
| 2026-05-07 10:55 | 45.46157 | -73.74018 | 106 ft | 13 kts | 43° |
| 2026-05-07 10:55 | 45.46232 | -73.73922 | 106 ft | 16 kts | 42° |
| 2026-05-07 10:55 | 45.46323 | -73.73804 | 106 ft | 19 kts | 43° |
| 2026-05-07 10:56 | 45.46433 | -73.73658 | 106 ft | 24 kts | 43° |
| 2026-05-07 10:56 | 45.46564 | -73.73486 | 108 ft | 25 kts | 42° |
| 2026-05-07 10:56 | 45.46697 | -73.73311 | 110 ft | 26 kts | 43° |
| 2026-05-07 10:56 | 45.46836 | -73.73126 | 110 ft | 28 kts | 43° |
| 2026-05-07 10:57 | 45.46979 | -73.72939 | 113 ft | 28 kts | 43° |
| 2026-05-07 10:57 | 45.47125 | -73.72747 | 114 ft | 28 kts | 42° |
| 2026-05-07 10:57 | 45.47272 | -73.72554 | 118 ft | 28 kts | 43° |
| 2026-05-07 10:57 | 45.47405 | -73.72379 | 122 ft | 25 kts | 43° |
| 2026-05-07 10:58 | 45.47529 | -73.72219 | 126 ft | 22 kts | 42° |
| 2026-05-07 10:58 | 45.47642 | -73.72070 | 127 ft | 22 kts | 44° |
| 2026-05-07 10:58 | 45.47756 | -73.71918 | 130 ft | 21 kts | 41° |
| 2026-05-07 10:58 | 45.47810 | -73.71814 | 131 ft | 11 kts | 97° |
| 2026-05-07 10:59 | 45.47766 | -73.71729 | 132 ft | 10 kts | 135° |
| 2026-05-07 10:59 | 45.47710 | -73.71654 | 134 ft | 10 kts | 144° |
| 2026-05-07 10:59 | 45.47636 | -73.71687 | 133 ft | 17 kts | 223° |
| 2026-05-07 10:59 | 45.47397 | -73.72002 | 127 ft | 79 kts | 223° |
| 2026-05-07 11:00 | 45.46849 | -73.72720 | 114 ft | 135 kts | 222° |
| 2026-05-07 11:00 | 45.46040 | -73.73772 | 236 ft | 168 kts | 223° |
| 2026-05-07 11:00 | 45.45181 | -73.74910 | 772 ft | 172 kts | 225° |
| 2026-05-07 11:00 | 45.44299 | -73.76049 | 1459 ft | 173 kts | 225° |
| 2026-05-07 11:01 | 45.43409 | -73.77163 | 2049 ft | 176 kts | 224° |
| 2026-05-07 11:01 | 45.42426 | -73.78363 | 2328 ft | 196 kts | 223° |
| 2026-05-07 11:01 | 45.41365 | -73.79719 | 2701 ft | 211 kts | 234° |
| 2026-05-07 11:01 | 45.40851 | -73.81672 | 3032 ft | 224 kts | 273° |
| 2026-05-07 11:02 | 45.41410 | -73.83749 | 3465 ft | 240 kts | 310° |
| 2026-05-07 11:02 | 45.42869 | -73.85000 | 4087 ft | 255 kts | 344° |
| 2026-05-07 11:02 | 45.44656 | -73.84830 | 4782 ft | 270 kts | 19° |
| 2026-05-07 11:02 | 45.46261 | -73.83451 | 5502 ft | 277 kts | 33° |
| 2026-05-07 11:03 | 45.47794 | -73.81751 | 6210 ft | 282 kts | 35° |
| 2026-05-07 11:03 | 45.49331 | -73.80008 | 6930 ft | 286 kts | 35° |
| 2026-05-07 11:03 | 45.50911 | -73.78252 | 7647 ft | 289 kts | 34° |
| 2026-05-07 11:03 | 45.52505 | -73.76517 | 8344 ft | 293 kts | 34° |
| 2026-05-07 11:04 | 45.54143 | -73.74757 | 9030 ft | 297 kts | 34° |
| 2026-05-07 11:04 | 45.55797 | -73.72994 | 9706 ft | 301 kts | 34° |
| 2026-05-07 11:04 | 45.57466 | -73.71223 | 10301 ft | 307 kts | 34° |
| 2026-05-07 11:04 | 45.59240 | -73.69348 | 10628 ft | 323 kts | 34° |
| 2026-05-07 11:05 | 45.61092 | -73.67390 | 10928 ft | 340 kts | 34° |
| 2026-05-07 11:05 | 45.63004 | -73.65365 | 11269 ft | 353 kts | 34° |
| 2026-05-07 11:05 | 45.64998 | -73.63248 | 11815 ft | 360 kts | 34° |
| 2026-05-07 11:05 | 45.67030 | -73.61089 | 12416 ft | 365 kts | 34° |
| 2026-05-07 11:06 | 45.69057 | -73.58934 | 12984 ft | 370 kts | 34° |
| 2026-05-07 11:06 | 45.71130 | -73.56728 | 13567 ft | 374 kts | 34° |
| 2026-05-07 11:06 | 45.73243 | -73.54479 | 14128 ft | 379 kts | 34° |
| 2026-05-07 11:06 | 45.75351 | -73.52232 | 14654 ft | 385 kts | 34° |
| 2026-05-07 11:07 | 45.77505 | -73.49935 | 15204 ft | 389 kts | 34° |
| 2026-05-07 11:07 | 45.79681 | -73.47611 | 15744 ft | 393 kts | 34° |
| 2026-05-07 11:07 | 45.81868 | -73.45277 | 16274 ft | 398 kts | 34° |
| 2026-05-07 11:07 | 45.84108 | -73.42876 | 16806 ft | 401 kts | 35° |
| 2026-05-07 11:08 | 45.86280 | -73.40382 | 17278 ft | 407 kts | 39° |
| 2026-05-07 11:08 | 45.88370 | -73.37600 | 17800 ft | 411 kts | 44° |
| 2026-05-07 11:08 | 45.90352 | -73.34634 | 18306 ft | 414 kts | 46° |
| 2026-05-07 11:08 | 45.92172 | -73.31815 | 18754 ft | 417 kts | 47° |
| 2026-05-07 11:09 | 45.92625 | -73.31113 | 18864 ft | 418 kts | 47° |
| 2026-05-07 11:09 | 45.94593 | -73.28054 | 19304 ft | 423 kts | 47° |
| 2026-05-07 11:09 | 45.96600 | -73.24957 | 19721 ft | 427 kts | 47° |
| 2026-05-07 11:09 | 45.98637 | -73.21819 | 20166 ft | 431 kts | 47° |
| 2026-05-07 11:10 | 46.00693 | -73.18654 | 20600 ft | 435 kts | 46° |
| 2026-05-07 11:10 | 46.02747 | -73.15492 | 20989 ft | 439 kts | 46° |
| 2026-05-07 11:10 | 46.04839 | -73.12267 | 21391 ft | 443 kts | 46° |
| 2026-05-07 11:10 | 46.06812 | -73.09225 | 21780 ft | 446 kts | 46° |
| 2026-05-07 11:11 | 46.07813 | -73.07679 | 21972 ft | 448 kts | 47° |
| 2026-05-07 11:11 | 46.09964 | -73.04354 | 22379 ft | 451 kts | 46° |
| 2026-05-07 11:11 | 46.12078 | -73.01080 | 22763 ft | 454 kts | 46° |
| 2026-05-07 11:11 | 46.14237 | -72.97730 | 23143 ft | 457 kts | 46° |
| 2026-05-07 11:12 | 46.16360 | -72.94290 | 23497 ft | 461 kts | 50° |
| 2026-05-07 11:12 | 46.18283 | -72.90666 | 23863 ft | 463 kts | 56° |
| 2026-05-07 11:12 | 46.20040 | -72.86758 | 24224 ft | 465 kts | 59° |
| 2026-05-07 11:12 | 46.21708 | -72.82750 | 24572 ft | 468 kts | 60° |
| 2026-05-07 11:13 | 46.23355 | -72.78726 | 24891 ft | 471 kts | 60° |
| 2026-05-07 11:13 | 46.25022 | -72.74654 | 25222 ft | 474 kts | 60° |
| 2026-05-07 11:13 | 46.26700 | -72.70574 | 25574 ft | 475 kts | 60° |
| 2026-05-07 11:13 | 46.28389 | -72.66471 | 25916 ft | 477 kts | 60° |
| 2026-05-07 11:14 | 46.30085 | -72.62361 | 26242 ft | 479 kts | 60° |
| 2026-05-07 11:14 | 46.31806 | -72.58190 | 26559 ft | 481 kts | 60° |
| 2026-05-07 11:14 | 46.33505 | -72.54066 | 26839 ft | 483 kts | 60° |
| 2026-05-07 11:14 | 46.35228 | -72.49876 | 27135 ft | 485 kts | 60° |
| 2026-05-07 11:15 | 46.36950 | -72.45691 | 27400 ft | 487 kts | 60° |
| 2026-05-07 11:15 | 46.38683 | -72.41460 | 27680 ft | 489 kts | 60° |
| 2026-05-07 11:15 | 46.40419 | -72.37225 | 27937 ft | 492 kts | 60° |
| 2026-05-07 11:15 | 46.42155 | -72.32983 | 28213 ft | 493 kts | 60° |
| 2026-05-07 11:16 | 46.43909 | -72.28694 | 28481 ft | 495 kts | 61° |
| 2026-05-07 11:16 | 46.45656 | -72.24410 | 28736 ft | 496 kts | 61° |
| 2026-05-07 11:16 | 46.47400 | -72.20125 | 28969 ft | 498 kts | 61° |
| 2026-05-07 11:16 | 46.49151 | -72.15814 | 29206 ft | 499 kts | 61° |
| 2026-05-07 11:17 | 46.50899 | -72.11506 | 29436 ft | 501 kts | 61° |
| 2026-05-07 11:17 | 46.52671 | -72.07133 | 29655 ft | 502 kts | 61° |
| 2026-05-07 11:17 | 46.54437 | -72.02764 | 29856 ft | 503 kts | 61° |
| 2026-05-07 11:17 | 46.56193 | -71.98415 | 30028 ft | 505 kts | 61° |
| 2026-05-07 11:18 | 46.57972 | -71.94007 | 30279 ft | 505 kts | 61° |
| 2026-05-07 11:18 | 46.59726 | -71.89656 | 30552 ft | 504 kts | 61° |
| 2026-05-07 11:18 | 46.61485 | -71.85278 | 30760 ft | 503 kts | 61° |
| 2026-05-07 11:18 | 46.63239 | -71.80904 | 30930 ft | 504 kts | 61° |
| 2026-05-07 11:19 | 46.65000 | -71.76508 | 31095 ft | 505 kts | 61° |
| 2026-05-07 11:19 | 46.66759 | -71.72105 | 31291 ft | 505 kts | 60° |
| 2026-05-07 11:19 | 46.68547 | -71.67682 | 31472 ft | 505 kts | 59° |
| 2026-05-07 11:19 | 46.70473 | -71.63399 | 31635 ft | 506 kts | 55° |
| 2026-05-07 11:20 | 46.72560 | -71.59338 | 31808 ft | 507 kts | 51° |
| 2026-05-07 11:20 | 46.74852 | -71.55407 | 31991 ft | 507 kts | 47° |
| 2026-05-07 11:20 | 46.77150 | -71.51535 | 32178 ft | 507 kts | 50° |
| 2026-05-07 11:20 | 46.79272 | -71.47501 | 32358 ft | 507 kts | 54° |
| 2026-05-07 11:21 | 46.81233 | -71.43196 | 32540 ft | 506 kts | 59° |
| 2026-05-07 11:21 | 46.83022 | -71.38809 | 32710 ft | 506 kts | 60° |
| 2026-05-07 11:21 | 46.84773 | -71.34366 | 32859 ft | 507 kts | 61° |
| 2026-05-07 11:21 | 46.86517 | -71.29913 | 32993 ft | 507 kts | 62° |
| 2026-05-07 11:22 | 46.88260 | -71.25461 | 33134 ft | 508 kts | 61° |
| 2026-05-07 11:22 | 46.90000 | -71.21025 | 33270 ft | 508 kts | 61° |
| 2026-05-07 11:22 | 46.91768 | -71.16524 | 33407 ft | 508 kts | 61° |
| 2026-05-07 11:22 | 46.93520 | -71.12067 | 33549 ft | 509 kts | 61° |
| 2026-05-07 11:23 | 46.95282 | -71.07582 | 33718 ft | 509 kts | 61° |
| 2026-05-07 11:23 | 46.97037 | -71.03110 | 33908 ft | 508 kts | 61° |
| 2026-05-07 11:23 | 46.98763 | -70.98703 | 34099 ft | 507 kts | 61° |
| 2026-05-07 11:23 | 47.00514 | -70.94226 | 34262 ft | 507 kts | 61° |
| 2026-05-07 11:24 | 47.02264 | -70.89745 | 34454 ft | 505 kts | 61° |
| 2026-05-07 11:24 | 47.03983 | -70.85332 | 34644 ft | 504 kts | 61° |
| 2026-05-07 11:24 | 47.05717 | -70.80879 | 34825 ft | 503 kts | 60° |
| 2026-05-07 11:24 | 47.07444 | -70.76434 | 35013 ft | 501 kts | 61° |
| 2026-05-07 11:25 | 47.09168 | -70.71987 | 35194 ft | 500 kts | 60° |
| 2026-05-07 11:25 | 47.10873 | -70.67583 | 35352 ft | 499 kts | 60° |
| 2026-05-07 11:25 | 47.12584 | -70.63160 | 35488 ft | 498 kts | 61° |
| 2026-05-07 11:25 | 47.14280 | -70.58771 | 35605 ft | 498 kts | 60° |
| 2026-05-07 11:26 | 47.15980 | -70.54355 | 35719 ft | 498 kts | 60° |
| 2026-05-07 11:26 | 47.17662 | -70.49983 | 35832 ft | 497 kts | 60° |
| 2026-05-07 11:26 | 47.19366 | -70.45548 | 35958 ft | 497 kts | 61° |
| 2026-05-07 11:26 | 47.21046 | -70.41168 | 36077 ft | 496 kts | 61° |
| 2026-05-07 11:27 | 47.22738 | -70.36752 | 36191 ft | 496 kts | 61° |
| 2026-05-07 11:27 | 47.24416 | -70.32367 | 36281 ft | 496 kts | 62° |
| 2026-05-07 11:27 | 47.27780 | -70.23541 | 36458 ft | 495 kts | 62° |
| 2026-05-07 11:28 | 47.31131 | -70.14719 | 36603 ft | 495 kts | 62° |
| 2026-05-07 11:28 | 47.34475 | -70.05891 | 36627 ft | 499 kts | 62° |
| 2026-05-07 11:29 | 47.37849 | -69.96954 | 36602 ft | 503 kts | 62° |
| 2026-05-07 11:29 | 47.41266 | -69.87874 | 36544 ft | 508 kts | 62° |
| 2026-05-07 11:30 | 47.44677 | -69.78776 | 36462 ft | 513 kts | 62° |
| 2026-05-07 11:30 | 47.48127 | -69.69545 | 36464 ft | 515 kts | 62° |
| 2026-05-07 11:31 | 47.51557 | -69.60331 | 36576 ft | 514 kts | 62° |
| 2026-05-07 11:31 | 47.54995 | -69.51072 | 36663 ft | 513 kts | 62° |
| 2026-05-07 11:32 | 47.60101 | -69.37254 | 36706 ft | 514 kts | 62° |
| 2026-05-07 11:33 | 47.63516 | -69.27974 | 36707 ft | 513 kts | 63° |
| 2026-05-07 11:33 | 47.66902 | -69.18737 | 36704 ft | 513 kts | 63° |
| 2026-05-07 11:34 | 47.70301 | -69.09433 | 36703 ft | 513 kts | 63° |
| 2026-05-07 11:34 | 47.73673 | -69.00169 | 36708 ft | 512 kts | 63° |
| 2026-05-07 11:35 | 47.77072 | -68.90957 | 36719 ft | 511 kts | 62° |
| 2026-05-07 11:35 | 47.80500 | -68.81710 | 36728 ft | 511 kts | 62° |
| 2026-05-07 11:36 | 47.83890 | -68.72521 | 36728 ft | 510 kts | 63° |
| 2026-05-07 11:36 | 47.87295 | -68.63255 | 36726 ft | 510 kts | 63° |
| 2026-05-07 11:37 | 47.90669 | -68.54034 | 36718 ft | 510 kts | 63° |
| 2026-05-07 11:37 | 47.94028 | -68.44817 | 36711 ft | 509 kts | 63° |
| 2026-05-07 11:38 | 47.97396 | -68.35545 | 36704 ft | 509 kts | 63° |
| 2026-05-07 11:38 | 48.00738 | -68.26317 | 36696 ft | 508 kts | 63° |
| 2026-05-07 11:39 | 48.04077 | -68.17057 | 36689 ft | 508 kts | 63° |
| 2026-05-07 11:39 | 48.07416 | -68.07769 | 36701 ft | 509 kts | 63° |
| 2026-05-07 11:40 | 48.10751 | -67.98462 | 36696 ft | 508 kts | 63° |
| 2026-05-07 11:40 | 48.14069 | -67.89166 | 36695 ft | 507 kts | 64° |
| 2026-05-07 11:41 | 48.17353 | -67.79932 | 36696 ft | 507 kts | 64° |
| 2026-05-07 11:41 | 48.20660 | -67.70596 | 36701 ft | 507 kts | 64° |
| 2026-05-07 11:42 | 48.23953 | -67.61272 | 36698 ft | 508 kts | 64° |
| 2026-05-07 11:42 | 48.27232 | -67.51955 | 36694 ft | 507 kts | 64° |
| 2026-05-07 11:43 | 48.30489 | -67.42666 | 36685 ft | 506 kts | 64° |
| 2026-05-07 11:43 | 48.33741 | -67.33360 | 36682 ft | 506 kts | 64° |
| 2026-05-07 11:44 | 48.36989 | -67.24026 | 36681 ft | 506 kts | 64° |
| 2026-05-07 11:44 | 48.40246 | -67.14635 | 36675 ft | 506 kts | 64° |
| 2026-05-07 11:45 | 48.43480 | -67.05278 | 36662 ft | 506 kts | 64° |
| 2026-05-07 11:45 | 48.46699 | -66.95931 | 36656 ft | 506 kts | 64° |
| 2026-05-07 11:46 | 48.49930 | -66.86517 | 36649 ft | 506 kts | 64° |
| 2026-05-07 11:46 | 48.53133 | -66.77145 | 36645 ft | 506 kts | 64° |
| 2026-05-07 11:47 | 48.56340 | -66.67733 | 36643 ft | 504 kts | 65° |
| 2026-05-07 11:47 | 48.59518 | -66.58367 | 36634 ft | 504 kts | 65° |
| 2026-05-07 11:48 | 48.62697 | -66.48968 | 36630 ft | 504 kts | 65° |
| 2026-05-07 11:48 | 48.65871 | -66.39544 | 36628 ft | 504 kts | 65° |
| 2026-05-07 11:49 | 48.69035 | -66.30119 | 36627 ft | 504 kts | 65° |
| 2026-05-07 11:49 | 48.72195 | -66.20666 | 36635 ft | 504 kts | 65° |
| 2026-05-07 11:50 | 48.75338 | -66.11231 | 36633 ft | 503 kts | 66° |
| 2026-05-07 11:50 | 48.78460 | -66.01823 | 36626 ft | 504 kts | 66° |
| 2026-05-07 11:51 | 48.81595 | -65.92345 | 36621 ft | 504 kts | 65° |
| 2026-05-07 11:51 | 48.84724 | -65.82855 | 36613 ft | 503 kts | 66° |
| 2026-05-07 11:52 | 48.87814 | -65.73444 | 36608 ft | 502 kts | 66° |
| 2026-05-07 11:52 | 48.90902 | -65.64002 | 36611 ft | 501 kts | 66° |
| 2026-05-07 11:53 | 48.93994 | -65.54512 | 36598 ft | 501 kts | 66° |
| 2026-05-07 11:53 | 48.97073 | -65.45023 | 36589 ft | 502 kts | 66° |
| 2026-05-07 11:54 | 49.00130 | -65.35571 | 36584 ft | 501 kts | 66° |
| 2026-05-07 11:54 | 49.03197 | -65.26055 | 36593 ft | 500 kts | 67° |
| 2026-05-07 11:55 | 49.06234 | -65.16589 | 36599 ft | 500 kts | 67° |
| 2026-05-07 11:55 | 49.09256 | -65.07134 | 36590 ft | 500 kts | 67° |
| 2026-05-07 11:56 | 49.12298 | -64.97586 | 36582 ft | 498 kts | 67° |
| 2026-05-07 11:56 | 49.15298 | -64.88131 | 36589 ft | 498 kts | 67° |
| 2026-05-07 11:57 | 49.18292 | -64.78660 | 36596 ft | 498 kts | 68° |
| 2026-05-07 11:57 | 49.21276 | -64.69195 | 36619 ft | 497 kts | 68° |
| 2026-05-07 11:58 | 49.24251 | -64.59701 | 36605 ft | 496 kts | 68° |
| 2026-05-07 11:58 | 49.27206 | -64.50250 | 36613 ft | 495 kts | 68° |
| 2026-05-07 11:59 | 49.30173 | -64.40717 | 36605 ft | 496 kts | 68° |
| 2026-05-07 11:59 | 49.33120 | -64.31218 | 36611 ft | 497 kts | 69° |
| 2026-05-07 12:00 | 49.36073 | -64.21658 | 36593 ft | 496 kts | 69° |
| 2026-05-07 12:00 | 49.38983 | -64.12197 | 36574 ft | 495 kts | 69° |
| 2026-05-07 12:01 | 49.41905 | -64.02669 | 36571 ft | 495 kts | 69° |
| 2026-05-07 12:01 | 49.44812 | -63.93154 | 36578 ft | 493 kts | 69° |
| 2026-05-07 12:02 | 49.47712 | -63.83615 | 36573 ft | 494 kts | 69° |
| 2026-05-07 12:02 | 49.50606 | -63.74066 | 36581 ft | 493 kts | 69° |
| 2026-05-07 12:03 | 49.53489 | -63.64516 | 36566 ft | 494 kts | 69° |
| 2026-05-07 12:03 | 49.56362 | -63.54962 | 36564 ft | 496 kts | 69° |
| 2026-05-07 12:04 | 49.59230 | -63.45384 | 36567 ft | 495 kts | 69° |
| 2026-05-07 12:04 | 49.62105 | -63.35746 | 36563 ft | 496 kts | 69° |
| 2026-05-07 12:05 | 49.64955 | -63.26157 | 36562 ft | 495 kts | 70° |
| 2026-05-07 12:05 | 49.67803 | -63.16532 | 36559 ft | 495 kts | 70° |
| 2026-05-07 12:06 | 49.70646 | -63.06890 | 36566 ft | 494 kts | 70° |
| 2026-05-07 12:06 | 49.73472 | -62.97263 | 36574 ft | 495 kts | 70° |
| 2026-05-07 12:07 | 49.76292 | -62.87624 | 36583 ft | 494 kts | 70° |
| 2026-05-07 12:07 | 49.79113 | -62.77945 | 36582 ft | 494 kts | 70° |
| 2026-05-07 12:08 | 49.81903 | -62.68325 | 36583 ft | 495 kts | 70° |
| 2026-05-07 12:08 | 49.84707 | -62.58624 | 36594 ft | 496 kts | 70° |
| 2026-05-07 12:09 | 49.87502 | -62.48904 | 36595 ft | 496 kts | 70° |
| 2026-05-07 12:09 | 49.90301 | -62.39143 | 36602 ft | 497 kts | 71° |
| 2026-05-07 12:10 | 49.93075 | -62.29425 | 36614 ft | 496 kts | 71° |
| 2026-05-07 12:10 | 49.95860 | -62.19634 | 36618 ft | 496 kts | 72° |
| 2026-05-07 12:11 | 49.98627 | -62.09853 | 36411 ft | 495 kts | 71° |
| 2026-05-07 12:11 | 49.99996 | -62.04997 | 36528 ft | 494 kts | 72° |
| 2026-05-07 12:11 | 50.01366 | -62.00128 | 36586 ft | 494 kts | 71° |
| 2026-05-07 12:11 | 50.02741 | -61.95236 | 36860 ft | 496 kts | 72° |
| 2026-05-07 12:12 | 50.04107 | -61.90366 | 36501 ft | 498 kts | 72° |
| 2026-05-07 12:12 | 50.05487 | -61.85434 | 36799 ft | 499 kts | 71° |
| 2026-05-07 12:12 | 50.06861 | -61.80515 | 36561 ft | 499 kts | 72° |
| 2026-05-07 12:13 | 50.09608 | -61.70647 | 36638 ft | 500 kts | 72° |
| 2026-05-07 12:13 | 50.12374 | -61.60666 | 36657 ft | 502 kts | 71° |
| 2026-05-07 12:14 | 50.15116 | -61.50738 | 36667 ft | 502 kts | 72° |
| 2026-05-07 12:14 | 50.17859 | -61.40777 | 36671 ft | 501 kts | 72° |
| 2026-05-07 12:15 | 50.20583 | -61.30827 | 36682 ft | 499 kts | 72° |
| 2026-05-07 12:15 | 50.23293 | -61.20885 | 36699 ft | 500 kts | 72° |
| 2026-05-07 12:16 | 50.25996 | -61.10915 | 36705 ft | 499 kts | 72° |
| 2026-05-07 12:16 | 50.28675 | -61.00997 | 36704 ft | 499 kts | 72° |
| 2026-05-07 12:17 | 50.31365 | -60.91011 | 36722 ft | 500 kts | 72° |
| 2026-05-07 12:17 | 50.34043 | -60.81017 | 36734 ft | 499 kts | 72° |
| 2026-05-07 12:18 | 50.36705 | -60.71040 | 36742 ft | 499 kts | 72° |
| 2026-05-07 12:18 | 50.39364 | -60.61033 | 36750 ft | 499 kts | 72° |
| 2026-05-07 12:19 | 50.42003 | -60.51050 | 36755 ft | 499 kts | 72° |
| 2026-05-07 12:19 | 50.44644 | -60.41021 | 36765 ft | 499 kts | 72° |
| 2026-05-07 12:20 | 50.47278 | -60.30980 | 36763 ft | 499 kts | 73° |
| 2026-05-07 12:20 | 50.49885 | -60.20995 | 36771 ft | 497 kts | 73° |
| 2026-05-07 12:21 | 50.52491 | -60.10957 | 36807 ft | 498 kts | 72° |
| 2026-05-07 12:21 | 50.55095 | -60.00900 | 36790 ft | 498 kts | 73° |
| 2026-05-07 12:22 | 50.57677 | -59.90873 | 36797 ft | 499 kts | 73° |
| 2026-05-07 12:22 | 50.60262 | -59.80799 | 36797 ft | 498 kts | 73° |
| 2026-05-07 12:23 | 50.62827 | -59.70758 | 36799 ft | 497 kts | 73° |
| 2026-05-07 12:23 | 50.65387 | -59.60681 | 36811 ft | 497 kts | 73° |
| 2026-05-07 12:24 | 50.67939 | -59.50599 | 36806 ft | 497 kts | 73° |
| 2026-05-07 12:24 | 50.70473 | -59.40538 | 36825 ft | 498 kts | 73° |
| 2026-05-07 12:25 | 50.73018 | -59.30392 | 36817 ft | 497 kts | 74° |
| 2026-05-07 12:25 | 50.75532 | -59.20318 | 36821 ft | 497 kts | 74° |
| 2026-05-07 12:26 | 50.78057 | -59.10169 | 36819 ft | 496 kts | 74° |
| 2026-05-07 12:26 | 50.80557 | -59.00050 | 36830 ft | 496 kts | 74° |
| 2026-05-07 12:27 | 50.83045 | -58.89946 | 36840 ft | 496 kts | 74° |
| 2026-05-07 12:27 | 50.85531 | -58.79805 | 36845 ft | 496 kts | 74° |
| 2026-05-07 12:28 | 50.87997 | -58.69698 | 36855 ft | 496 kts | 74° |
| 2026-05-07 12:28 | 50.90470 | -58.59512 | 36861 ft | 495 kts | 74° |
| 2026-05-07 12:29 | 50.92923 | -58.49372 | 36861 ft | 496 kts | 74° |
| 2026-05-07 12:29 | 50.95363 | -58.39226 | 36858 ft | 496 kts | 74° |
| 2026-05-07 12:30 | 50.97813 | -58.28996 | 36863 ft | 496 kts | 75° |
| 2026-05-07 12:30 | 51.00237 | -58.18821 | 36875 ft | 497 kts | 75° |
| 2026-05-07 12:31 | 51.02655 | -58.08638 | 36878 ft | 496 kts | 75° |
| 2026-05-07 12:31 | 51.05075 | -57.98386 | 36874 ft | 497 kts | 75° |
| 2026-05-07 12:32 | 51.07476 | -57.88177 | 36874 ft | 496 kts | 75° |
| 2026-05-07 12:32 | 51.09884 | -57.77884 | 36870 ft | 497 kts | 75° |
| 2026-05-07 12:33 | 51.13477 | -57.62432 | 36872 ft | 498 kts | 75° |
| 2026-05-07 12:33 | 51.15859 | -57.52114 | 36876 ft | 499 kts | 75° |
| 2026-05-07 12:34 | 51.18224 | -57.41832 | 36875 ft | 499 kts | 75° |
| 2026-05-07 12:34 | 51.20602 | -57.31447 | 36880 ft | 500 kts | 76° |
| 2026-05-07 12:35 | 51.22963 | -57.21089 | 36886 ft | 500 kts | 76° |
| 2026-05-07 12:35 | 51.25316 | -57.10698 | 36884 ft | 500 kts | 75° |
| 2026-05-07 12:36 | 51.27662 | -57.00293 | 36884 ft | 501 kts | 75° |
| 2026-05-07 12:36 | 51.30009 | -56.89840 | 36889 ft | 501 kts | 75° |
| 2026-05-07 12:37 | 51.32335 | -56.79426 | 36897 ft | 501 kts | 75° |
| 2026-05-07 12:37 | 51.34657 | -56.68982 | 36896 ft | 501 kts | 76° |
| 2026-05-07 12:38 | 51.36979 | -56.58466 | 36900 ft | 503 kts | 75° |
| 2026-05-07 12:38 | 51.39290 | -56.47969 | 36903 ft | 503 kts | 76° |
| 2026-05-07 12:39 | 51.41591 | -56.37453 | 36906 ft | 502 kts | 75° |
| 2026-05-07 12:39 | 51.43891 | -56.26886 | 36915 ft | 503 kts | 76° |
| 2026-05-07 12:40 | 51.46173 | -56.16338 | 36927 ft | 504 kts | 76° |
| 2026-05-07 12:40 | 51.48449 | -56.05784 | 36930 ft | 504 kts | 76° |
| 2026-05-07 12:41 | 51.50727 | -55.95162 | 36932 ft | 504 kts | 76° |
| 2026-05-07 12:41 | 51.52983 | -55.84584 | 36927 ft | 504 kts | 76° |
| 2026-05-07 12:42 | 51.55238 | -55.73950 | 36929 ft | 505 kts | 76° |
| 2026-05-07 12:42 | 51.57491 | -55.63281 | 36934 ft | 505 kts | 77° |
| 2026-05-07 12:43 | 51.59723 | -55.52634 | 36939 ft | 507 kts | 76° |
| 2026-05-07 12:43 | 51.61975 | -55.41851 | 36943 ft | 508 kts | 76° |
| 2026-05-07 12:44 | 51.64200 | -55.31149 | 36939 ft | 506 kts | 77° |
| 2026-05-07 12:44 | 51.66414 | -55.20428 | 36947 ft | 507 kts | 77° |
| 2026-05-07 12:45 | 51.68625 | -55.09658 | 36946 ft | 508 kts | 77° |
| 2026-05-07 12:45 | 51.70816 | -54.98946 | 36950 ft | 508 kts | 77° |
| 2026-05-07 12:46 | 51.73006 | -54.88168 | 36956 ft | 509 kts | 77° |
| 2026-05-07 12:46 | 51.75190 | -54.77362 | 36962 ft | 509 kts | 77° |
| 2026-05-07 12:47 | 51.77367 | -54.66539 | 36967 ft | 508 kts | 77° |
| 2026-05-07 12:47 | 51.79558 | -54.55757 | 36971 ft | 510 kts | 75° |
| 2026-05-07 12:48 | 51.82317 | -54.45163 | 36975 ft | 515 kts | 69° |
| 2026-05-07 12:48 | 51.85350 | -54.34762 | 36976 ft | 515 kts | 69° |
| 2026-05-07 12:49 | 51.88400 | -54.24285 | 36981 ft | 514 kts | 69° |
| 2026-05-07 12:49 | 51.91419 | -54.13819 | 36990 ft | 514 kts | 69° |
| 2026-05-07 12:50 | 51.94405 | -54.03381 | 36993 ft | 515 kts | 69° |
| 2026-05-07 12:50 | 51.97401 | -53.92862 | 36995 ft | 514 kts | 69° |
| 2026-05-07 12:51 | 52.00376 | -53.82356 | 36998 ft | 516 kts | 69° |
| 2026-05-07 12:51 | 52.03342 | -53.71862 | 37002 ft | 516 kts | 69° |
| 2026-05-07 12:52 | 52.06326 | -53.61231 | 37007 ft | 516 kts | 69° |
| 2026-05-07 12:52 | 52.09278 | -53.50687 | 37009 ft | 516 kts | 69° |
| 2026-05-07 12:53 | 52.12218 | -53.40134 | 37012 ft | 515 kts | 69° |
| 2026-05-07 12:53 | 52.15172 | -53.29474 | 37015 ft | 517 kts | 70° |
| 2026-05-07 12:54 | 52.18092 | -53.18890 | 37015 ft | 515 kts | 69° |
| 2026-05-07 12:54 | 52.21014 | -53.08260 | 37024 ft | 516 kts | 69° |
| 2026-05-07 12:55 | 52.23911 | -52.97648 | 37023 ft | 516 kts | 69° |
| 2026-05-07 12:55 | 52.26824 | -52.86946 | 37021 ft | 517 kts | 69° |
| 2026-05-07 12:56 | 52.29707 | -52.76313 | 37018 ft | 517 kts | 69° |
| 2026-05-07 12:56 | 52.32602 | -52.65571 | 37024 ft | 517 kts | 69° |
| 2026-05-07 12:57 | 52.35479 | -52.54853 | 37026 ft | 516 kts | 69° |
| 2026-05-07 12:57 | 52.38335 | -52.44164 | 37028 ft | 516 kts | 69° |
| 2026-05-07 12:58 | 52.41171 | -52.33501 | 37026 ft | 514 kts | 69° |
| 2026-05-07 12:58 | 52.44018 | -52.22747 | 37031 ft | 515 kts | 69° |
| 2026-05-07 12:59 | 52.46828 | -52.12071 | 37223 ft | 514 kts | 69° |
| 2026-05-07 12:59 | 52.48235 | -52.06714 | 37094 ft | 513 kts | 69° |
| 2026-05-07 12:59 | 52.49639 | -52.01355 | 37060 ft | 512 kts | 69° |
| 2026-05-07 13:00 | 52.52431 | -51.90653 | 37048 ft | 512 kts | 69° |
| 2026-05-07 13:00 | 52.55200 | -51.79987 | 37047 ft | 512 kts | 69° |
| 2026-05-07 13:01 | 52.57979 | -51.69236 | 37054 ft | 512 kts | 69° |
| 2026-05-07 13:01 | 52.60740 | -51.58501 | 37050 ft | 511 kts | 69° |
| 2026-05-07 13:02 | 52.63482 | -51.47791 | 37057 ft | 511 kts | 69° |
| 2026-05-07 13:02 | 52.66227 | -51.37025 | 37059 ft | 510 kts | 69° |
| 2026-05-07 13:03 | 52.68949 | -51.26291 | 37062 ft | 510 kts | 70° |
| 2026-05-07 13:03 | 52.71662 | -51.15531 | 37063 ft | 510 kts | 69° |
| 2026-05-07 13:04 | 52.74351 | -51.04833 | 37064 ft | 510 kts | 69° |
| 2026-05-07 13:04 | 52.77039 | -50.94066 | 37073 ft | 509 kts | 69° |
| 2026-05-07 13:05 | 52.79729 | -50.83248 | 37069 ft | 510 kts | 69° |
| 2026-05-07 13:05 | 52.82410 | -50.72428 | 37070 ft | 509 kts | 69° |
| 2026-05-07 13:06 | 52.85065 | -50.61645 | 37073 ft | 509 kts | 69° |
| 2026-05-07 13:06 | 52.87710 | -50.50856 | 37074 ft | 509 kts | 69° |
| 2026-05-07 13:07 | 52.90332 | -50.40109 | 37078 ft | 508 kts | 69° |
| 2026-05-07 13:07 | 52.92974 | -50.29227 | 37079 ft | 508 kts | 69° |
| 2026-05-07 13:08 | 52.95573 | -50.18460 | 37086 ft | 508 kts | 69° |
| 2026-05-07 13:08 | 52.98185 | -50.07595 | 37086 ft | 508 kts | 69° |
| 2026-05-07 13:09 | 53.00472 | -49.96635 | 37092 ft | 506 kts | 76° |
| 2026-05-07 13:09 | 53.02149 | -49.85357 | 37089 ft | 505 kts | 78° |
| 2026-05-07 13:10 | 53.03735 | -49.74060 | 37094 ft | 504 kts | 78° |
| 2026-05-07 13:10 | 53.05329 | -49.62732 | 37094 ft | 504 kts | 78° |
| 2026-05-07 13:11 | 53.06911 | -49.51477 | 37098 ft | 502 kts | 78° |
| 2026-05-07 13:11 | 53.08489 | -49.40189 | 37097 ft | 502 kts | 78° |
| 2026-05-07 13:12 | 53.10057 | -49.28910 | 37103 ft | 502 kts | 79° |
| 2026-05-07 13:12 | 53.11604 | -49.17667 | 37105 ft | 501 kts | 79° |
| 2026-05-07 13:13 | 53.13153 | -49.06354 | 37104 ft | 502 kts | 78° |
| 2026-05-07 13:13 | 53.14682 | -48.95076 | 37109 ft | 501 kts | 78° |
| 2026-05-07 13:14 | 53.16192 | -48.83866 | 37117 ft | 500 kts | 78° |
| 2026-05-07 13:14 | 53.17701 | -48.72571 | 37114 ft | 499 kts | 78° |
| 2026-05-07 13:15 | 53.19186 | -48.61366 | 37118 ft | 499 kts | 78° |
| 2026-05-07 13:15 | 53.20668 | -48.50107 | 37119 ft | 498 kts | 78° |
| 2026-05-07 13:16 | 53.22137 | -48.38867 | 37118 ft | 497 kts | 78° |
| 2026-05-07 13:16 | 53.23594 | -48.27608 | 37116 ft | 498 kts | 79° |
| 2026-05-07 13:17 | 53.25029 | -48.16428 | 37125 ft | 497 kts | 78° |
| 2026-05-07 13:17 | 53.26461 | -48.05211 | 37124 ft | 496 kts | 78° |
| 2026-05-07 13:18 | 53.27886 | -47.93947 | 37120 ft | 496 kts | 78° |
| 2026-05-07 13:18 | 53.29284 | -47.82781 | 37124 ft | 495 kts | 78° |
| 2026-05-07 13:19 | 53.30684 | -47.71533 | 37129 ft | 495 kts | 78° |
| 2026-05-07 13:19 | 53.32067 | -47.60324 | 37131 ft | 495 kts | 78° |
| 2026-05-07 13:20 | 53.33440 | -47.49102 | 37132 ft | 495 kts | 78° |
| 2026-05-07 13:20 | 53.34800 | -47.37913 | 37136 ft | 495 kts | 78° |
| 2026-05-07 13:21 | 53.36157 | -47.26644 | 37138 ft | 495 kts | 78° |
| 2026-05-07 13:21 | 53.37503 | -47.15364 | 37141 ft | 494 kts | 79° |
| 2026-05-07 13:22 | 53.38826 | -47.04178 | 37142 ft | 494 kts | 78° |
| 2026-05-07 13:22 | 53.40144 | -46.92936 | 37148 ft | 493 kts | 78° |
| 2026-05-07 13:23 | 53.41450 | -46.81712 | 37152 ft | 492 kts | 78° |
| 2026-05-07 13:23 | 53.42738 | -46.70525 | 37156 ft | 492 kts | 78° |
| 2026-05-07 13:24 | 53.44021 | -46.59309 | 37157 ft | 492 kts | 78° |
| 2026-05-07 13:24 | 53.45291 | -46.48094 | 37156 ft | 491 kts | 78° |
| 2026-05-07 13:25 | 53.46554 | -46.36852 | 37156 ft | 492 kts | 78° |
| 2026-05-07 13:25 | 53.47805 | -46.25616 | 37157 ft | 491 kts | 78° |
| 2026-05-07 13:26 | 53.49043 | -46.14376 | 37159 ft | 491 kts | 78° |
| 2026-05-07 13:26 | 53.50261 | -46.03211 | 37159 ft | 490 kts | 78° |
| 2026-05-07 13:27 | 53.51479 | -45.91971 | 37156 ft | 490 kts | 78° |
| 2026-05-07 13:27 | 53.52683 | -45.80754 | 37156 ft | 490 kts | 78° |
| 2026-05-07 13:28 | 53.53869 | -45.69590 | 37157 ft | 489 kts | 78° |
| 2026-05-07 13:28 | 53.55055 | -45.58321 | 37160 ft | 490 kts | 78° |
| 2026-05-07 13:29 | 53.56223 | -45.47120 | 37163 ft | 489 kts | 78° |
| 2026-05-07 13:29 | 53.57383 | -45.35888 | 37167 ft | 489 kts | 78° |
| 2026-05-07 13:30 | 53.58525 | -45.24731 | 37168 ft | 489 kts | 79° |
| 2026-05-07 13:30 | 53.59666 | -45.13455 | 37171 ft | 488 kts | 78° |
| 2026-05-07 13:31 | 53.60786 | -45.02291 | 37175 ft | 488 kts | 78° |
| 2026-05-07 13:31 | 53.61899 | -44.91085 | 37177 ft | 488 kts | 78° |
| 2026-05-07 13:32 | 53.63007 | -44.79828 | 37177 ft | 488 kts | 78° |
| 2026-05-07 13:32 | 53.64097 | -44.68635 | 37179 ft | 488 kts | 78° |
| 2026-05-07 13:33 | 53.65186 | -44.57336 | 37179 ft | 489 kts | 78° |
| 2026-05-07 13:33 | 53.66260 | -44.46057 | 37179 ft | 489 kts | 78° |
| 2026-05-07 13:34 | 53.67850 | -44.29184 | 37176 ft | 489 kts | 79° |
| 2026-05-07 13:35 | 53.68893 | -44.17939 | 37177 ft | 489 kts | 78° |
| 2026-05-07 13:35 | 53.69933 | -44.06632 | 37176 ft | 489 kts | 78° |
| 2026-05-07 13:36 | 53.70961 | -43.95331 | 37181 ft | 489 kts | 78° |
| 2026-05-07 13:36 | 53.71974 | -43.84079 | 37182 ft | 489 kts | 78° |
| 2026-05-07 13:37 | 53.72978 | -43.72781 | 37186 ft | 489 kts | 78° |
| 2026-05-07 13:37 | 53.73972 | -43.61499 | 37186 ft | 489 kts | 78° |
| 2026-05-07 13:38 | 53.74959 | -43.50135 | 37194 ft | 489 kts | 78° |
| 2026-05-07 13:38 | 53.75935 | -43.38806 | 37198 ft | 488 kts | 78° |
| 2026-05-07 13:39 | 53.76895 | -43.27522 | 37199 ft | 488 kts | 79° |
| 2026-05-07 13:39 | 53.77841 | -43.16260 | 37198 ft | 488 kts | 79° |
| 2026-05-07 13:40 | 53.78783 | -43.04928 | 37201 ft | 488 kts | 79° |
| 2026-05-07 13:40 | 53.79710 | -42.93630 | 37203 ft | 488 kts | 78° |
| 2026-05-07 13:41 | 53.80629 | -42.82315 | 37203 ft | 489 kts | 78° |
| 2026-05-07 13:41 | 53.81538 | -42.70971 | 37206 ft | 488 kts | 78° |
| 2026-05-07 13:42 | 53.82436 | -42.59623 | 37206 ft | 488 kts | 78° |
| 2026-05-07 13:42 | 53.83322 | -42.48296 | 37207 ft | 487 kts | 78° |
| 2026-05-07 13:43 | 53.84196 | -42.36979 | 37210 ft | 487 kts | 78° |
| 2026-05-07 13:43 | 53.85061 | -42.25645 | 37210 ft | 488 kts | 79° |
| 2026-05-07 13:44 | 53.85916 | -42.14288 | 37217 ft | 488 kts | 79° |
| 2026-05-07 13:44 | 53.86760 | -42.02926 | 37214 ft | 488 kts | 79° |
| 2026-05-07 13:45 | 53.87586 | -41.91635 | 37221 ft | 487 kts | 79° |
| 2026-05-07 13:45 | 53.88412 | -41.80228 | 37227 ft | 488 kts | 79° |
| 2026-05-07 13:46 | 53.89222 | -41.68869 | 37226 ft | 487 kts | 78° |
| 2026-05-07 13:46 | 53.90019 | -41.57546 | 37229 ft | 488 kts | 78° |
| 2026-05-07 13:47 | 53.90813 | -41.46132 | 37231 ft | 488 kts | 78° |
| 2026-05-07 13:47 | 53.91590 | -41.34774 | 37234 ft | 488 kts | 79° |
| 2026-05-07 13:48 | 53.92360 | -41.23369 | 37234 ft | 488 kts | 79° |
| 2026-05-07 13:48 | 53.93113 | -41.12056 | 37241 ft | 488 kts | 79° |
| 2026-05-07 13:49 | 53.93864 | -41.00622 | 37242 ft | 487 kts | 79° |
| 2026-05-07 13:49 | 53.94599 | -40.89244 | 36864 ft | 488 kts | 79° |
| 2026-05-07 13:49 | 53.94958 | -40.83612 | 37096 ft | 485 kts | 79° |
| 2026-05-07 13:50 | 53.95317 | -40.77948 | 37200 ft | 485 kts | 78° |
| 2026-05-07 13:50 | 53.96032 | -40.66568 | 37248 ft | 488 kts | 78° |
| 2026-05-07 13:51 | 53.96740 | -40.55115 | 37259 ft | 489 kts | 78° |
| 2026-05-07 13:51 | 53.97430 | -40.43763 | 37265 ft | 489 kts | 78° |
| 2026-05-07 13:52 | 53.98115 | -40.32326 | 37268 ft | 489 kts | 79° |
| 2026-05-07 13:52 | 53.98792 | -40.20845 | 37271 ft | 490 kts | 79° |
| 2026-05-07 13:53 | 53.99452 | -40.09412 | 37274 ft | 490 kts | 79° |
| 2026-05-07 13:53 | 54.00332 | -39.98016 | 37276 ft | 485 kts | 73° |
| 2026-05-07 13:54 | 54.01811 | -39.86969 | 37271 ft | 481 kts | 69° |
| 2026-05-07 13:54 | 54.03404 | -39.75966 | 37272 ft | 480 kts | 69° |
| 2026-05-07 13:55 | 54.04975 | -39.64979 | 37273 ft | 480 kts | 69° |
| 2026-05-07 13:55 | 54.06521 | -39.54029 | 37279 ft | 479 kts | 69° |
| 2026-05-07 13:56 | 54.08062 | -39.43035 | 37286 ft | 480 kts | 69° |
| 2026-05-07 13:56 | 54.09597 | -39.31973 | 37287 ft | 481 kts | 70° |
| 2026-05-07 13:57 | 54.11120 | -39.20918 | 37292 ft | 481 kts | 70° |
| 2026-05-07 13:57 | 54.12628 | -39.09882 | 37298 ft | 480 kts | 70° |
| 2026-05-07 13:58 | 54.14120 | -38.98891 | 37300 ft | 480 kts | 70° |
| 2026-05-07 13:58 | 54.15608 | -38.87850 | 37298 ft | 480 kts | 70° |
| 2026-05-07 13:59 | 54.17091 | -38.76773 | 37297 ft | 479 kts | 69° |
| 2026-05-07 13:59 | 54.18557 | -38.65730 | 37296 ft | 479 kts | 69° |
| 2026-05-07 14:00 | 54.20011 | -38.54683 | 37290 ft | 479 kts | 70° |
| 2026-05-07 14:00 | 54.21456 | -38.43617 | 37289 ft | 479 kts | 69° |
| 2026-05-07 14:01 | 54.22886 | -38.32606 | 37292 ft | 480 kts | 70° |
| 2026-05-07 14:01 | 54.24316 | -38.21492 | 37292 ft | 480 kts | 70° |
| 2026-05-07 14:02 | 54.25736 | -38.10366 | 37293 ft | 481 kts | 70° |
| 2026-05-07 14:02 | 54.27139 | -37.99286 | 37311 ft | 480 kts | 70° |
| 2026-05-07 14:03 | 54.28538 | -37.88156 | 37321 ft | 479 kts | 70° |
| 2026-05-07 14:03 | 54.29922 | -37.77057 | 37316 ft | 479 kts | 70° |
| 2026-05-07 14:04 | 54.31288 | -37.66004 | 37309 ft | 477 kts | 70° |
| 2026-05-07 14:04 | 54.32653 | -37.54883 | 37298 ft | 477 kts | 70° |
| 2026-05-07 14:05 | 54.34002 | -37.43805 | 37306 ft | 477 kts | 70° |
| 2026-05-07 14:05 | 54.35337 | -37.32736 | 37304 ft | 477 kts | 70° |
| 2026-05-07 14:06 | 54.36668 | -37.21624 | 37303 ft | 478 kts | 70° |
| 2026-05-07 14:06 | 54.37985 | -37.10531 | 37302 ft | 478 kts | 70° |
| 2026-05-07 14:07 | 54.39288 | -36.99451 | 37303 ft | 477 kts | 70° |
| 2026-05-07 14:07 | 54.40588 | -36.88320 | 37297 ft | 479 kts | 70° |
| 2026-05-07 14:08 | 54.41878 | -36.77181 | 37290 ft | 479 kts | 70° |
| 2026-05-07 14:08 | 54.43165 | -36.65959 | 37290 ft | 478 kts | 70° |
| 2026-05-07 14:09 | 54.44431 | -36.54825 | 37298 ft | 478 kts | 70° |
| 2026-05-07 14:09 | 54.45693 | -36.43635 | 37297 ft | 478 kts | 70° |
| 2026-05-07 14:10 | 54.46930 | -36.32560 | 37302 ft | 477 kts | 71° |
| 2026-05-07 14:10 | 54.48170 | -36.21384 | 37298 ft | 478 kts | 71° |
| 2026-05-07 14:11 | 54.49398 | -36.10187 | 37296 ft | 478 kts | 71° |
| 2026-05-07 14:11 | 54.50617 | -35.98975 | 37305 ft | 477 kts | 71° |
| 2026-05-07 14:12 | 54.51820 | -35.87820 | 37313 ft | 478 kts | 71° |
| 2026-05-07 14:12 | 54.53019 | -35.76601 | 37306 ft | 478 kts | 71° |
| 2026-05-07 14:13 | 54.54206 | -35.65380 | 37310 ft | 478 kts | 71° |
| 2026-05-07 14:13 | 54.55371 | -35.54241 | 37293 ft | 477 kts | 71° |
| 2026-05-07 14:14 | 54.56537 | -35.43036 | 37295 ft | 477 kts | 71° |
| 2026-05-07 14:14 | 54.57695 | -35.31776 | 37312 ft | 478 kts | 71° |
| 2026-05-07 14:15 | 54.58840 | -35.20554 | 37290 ft | 479 kts | 71° |
| 2026-05-07 14:15 | 54.59973 | -35.09307 | 37298 ft | 478 kts | 72° |
| 2026-05-07 14:16 | 54.61102 | -34.98032 | 37295 ft | 479 kts | 71° |
| 2026-05-07 14:16 | 54.62210 | -34.86825 | 37310 ft | 478 kts | 71° |
| 2026-05-07 14:17 | 54.63313 | -34.75554 | 37287 ft | 477 kts | 72° |
| 2026-05-07 14:17 | 54.64404 | -34.64324 | 37309 ft | 478 kts | 72° |
| 2026-05-07 14:18 | 54.65483 | -34.53074 | 37290 ft | 477 kts | 72° |
| 2026-05-07 14:18 | 54.66550 | -34.41842 | 37300 ft | 476 kts | 72° |
| 2026-05-07 14:19 | 54.67612 | -34.30571 | 37289 ft | 477 kts | 72° |
| 2026-05-07 14:19 | 54.68662 | -34.19298 | 37306 ft | 477 kts | 73° |
| 2026-05-07 14:20 | 54.69697 | -34.08062 | 37276 ft | 478 kts | 73° |
| 2026-05-07 14:20 | 54.70729 | -33.96725 | 37298 ft | 477 kts | 73° |
| 2026-05-07 14:21 | 54.71749 | -33.85417 | 37295 ft | 478 kts | 73° |
| 2026-05-07 14:21 | 54.72755 | -33.74108 | 37276 ft | 477 kts | 73° |
| 2026-05-07 14:22 | 54.73754 | -33.62794 | 37292 ft | 479 kts | 73° |
| 2026-05-07 14:22 | 54.74744 | -33.51447 | 37295 ft | 478 kts | 73° |
| 2026-05-07 14:23 | 54.75717 | -33.40158 | 37295 ft | 479 kts | 73° |
| 2026-05-07 14:23 | 54.76691 | -33.28770 | 37295 ft | 480 kts | 74° |
| 2026-05-07 14:24 | 54.77648 | -33.17380 | 37288 ft | 480 kts | 73° |
| 2026-05-07 14:24 | 54.78591 | -33.06060 | 37283 ft | 479 kts | 73° |
| 2026-05-07 14:25 | 54.79532 | -32.94660 | 37285 ft | 481 kts | 74° |
| 2026-05-07 14:25 | 54.80467 | -32.83176 | 37272 ft | 483 kts | 73° |
| 2026-05-07 14:26 | 54.81383 | -32.71772 | 37281 ft | 482 kts | 74° |
| 2026-05-07 14:26 | 54.82297 | -32.60240 | 37280 ft | 482 kts | 73° |
| 2026-05-07 14:27 | 54.83193 | -32.48818 | 37271 ft | 483 kts | 73° |
| 2026-05-07 14:27 | 54.84084 | -32.37330 | 37281 ft | 483 kts | 73° |
| 2026-05-07 14:28 | 54.84968 | -32.25799 | 37292 ft | 483 kts | 75° |
| 2026-05-07 14:28 | 54.85834 | -32.14307 | 37273 ft | 483 kts | 74° |
| 2026-05-07 14:29 | 54.86692 | -32.02790 | 37270 ft | 483 kts | 74° |
| 2026-05-07 14:29 | 54.87533 | -31.91356 | 37263 ft | 482 kts | 74° |
| 2026-05-07 14:30 | 54.88368 | -31.79861 | 37266 ft | 482 kts | 74° |
| 2026-05-07 14:30 | 54.89192 | -31.68372 | 37284 ft | 482 kts | 75° |
| 2026-05-07 14:31 | 54.90008 | -31.56794 | 37261 ft | 483 kts | 75° |
| 2026-05-07 14:31 | 54.90807 | -31.45316 | 37256 ft | 481 kts | 75° |
| 2026-05-07 14:32 | 54.91593 | -31.33831 | 37278 ft | 480 kts | 75° |
| 2026-05-07 14:32 | 54.92371 | -31.22386 | 37253 ft | 481 kts | 75° |
| 2026-05-07 14:33 | 54.93142 | -31.10874 | 37264 ft | 482 kts | 75° |
| 2026-05-07 14:33 | 54.93902 | -30.99304 | 37260 ft | 481 kts | 75° |
| 2026-05-07 14:34 | 54.94644 | -30.87825 | 37393 ft | 480 kts | 76° |
| 2026-05-07 14:34 | 54.95374 | -30.76383 | 37290 ft | 478 kts | 76° |
| 2026-05-07 14:35 | 54.96096 | -30.64949 | 37264 ft | 477 kts | 76° |
| 2026-05-07 14:35 | 54.96802 | -30.53548 | 37264 ft | 476 kts | 76° |
| 2026-05-07 14:36 | 54.97501 | -30.42117 | 37252 ft | 476 kts | 76° |
| 2026-05-07 14:36 | 54.98186 | -30.30747 | 37253 ft | 478 kts | 77° |
| 2026-05-07 14:37 | 54.98865 | -30.19262 | 37254 ft | 477 kts | 77° |
| 2026-05-07 14:37 | 54.99857 | -30.02132 | 37247 ft | 477 kts | 77° |
| 2026-05-07 14:38 | 55.00402 | -29.90561 | 37241 ft | 480 kts | 79° |
| 2026-05-07 14:38 | 55.00834 | -29.79065 | 37235 ft | 479 kts | 79° |
| 2026-05-07 14:39 | 55.01268 | -29.67517 | 37237 ft | 478 kts | 79° |
| 2026-05-07 14:39 | 55.01697 | -29.56053 | 37232 ft | 478 kts | 79° |
| 2026-05-07 14:40 | 55.02123 | -29.44487 | 37241 ft | 479 kts | 79° |
| 2026-05-07 14:40 | 55.02536 | -29.32994 | 37234 ft | 478 kts | 80° |
| 2026-05-07 14:41 | 55.02940 | -29.21495 | 37233 ft | 479 kts | 80° |
| 2026-05-07 14:41 | 55.03334 | -29.09965 | 37227 ft | 479 kts | 80° |
| 2026-05-07 14:42 | 55.03718 | -28.98382 | 37226 ft | 480 kts | 80° |
| 2026-05-07 14:42 | 55.04091 | -28.86788 | 37224 ft | 480 kts | 80° |
| 2026-05-07 14:43 | 55.04451 | -28.75267 | 37212 ft | 480 kts | 80° |
| 2026-05-07 14:43 | 55.04802 | -28.63708 | 37223 ft | 480 kts | 80° |
| 2026-05-07 14:44 | 55.05142 | -28.52123 | 37215 ft | 479 kts | 81° |
| 2026-05-07 14:44 | 55.05469 | -28.40603 | 37225 ft | 479 kts | 81° |
| 2026-05-07 14:45 | 55.05787 | -28.29014 | 37222 ft | 480 kts | 82° |
| 2026-05-07 14:45 | 55.06094 | -28.17422 | 37223 ft | 480 kts | 82° |
| 2026-05-07 14:46 | 55.06389 | -28.05896 | 37222 ft | 480 kts | 82° |
| 2026-05-07 14:46 | 55.06674 | -27.94296 | 37230 ft | 480 kts | 82° |
| 2026-05-07 14:47 | 55.06948 | -27.82727 | 37228 ft | 481 kts | 82° |
| 2026-05-07 14:47 | 55.07213 | -27.71059 | 37229 ft | 481 kts | 82° |
| 2026-05-07 14:48 | 55.07465 | -27.59480 | 37227 ft | 481 kts | 82° |
| 2026-05-07 14:48 | 55.07706 | -27.47849 | 37220 ft | 481 kts | 82° |
| 2026-05-07 14:49 | 55.07934 | -27.36265 | 37223 ft | 481 kts | 82° |
| 2026-05-07 14:49 | 55.08155 | -27.24610 | 37222 ft | 482 kts | 83° |
| 2026-05-07 14:50 | 55.08363 | -27.13017 | 37217 ft | 482 kts | 83° |
| 2026-05-07 14:50 | 55.08562 | -27.01378 | 37214 ft | 483 kts | 83° |
| 2026-05-07 14:51 | 55.08751 | -26.89645 | 37206 ft | 483 kts | 84° |
| 2026-05-07 14:51 | 55.08924 | -26.78029 | 37208 ft | 483 kts | 83° |
| 2026-05-07 14:52 | 55.09088 | -26.66307 | 37207 ft | 483 kts | 83° |
| 2026-05-07 14:52 | 55.09242 | -26.54722 | 37204 ft | 483 kts | 84° |
| 2026-05-07 14:53 | 55.09386 | -26.42995 | 37203 ft | 484 kts | 84° |
| 2026-05-07 14:53 | 55.09515 | -26.31357 | 37195 ft | 484 kts | 84° |
| 2026-05-07 14:54 | 55.09635 | -26.19664 | 37188 ft | 483 kts | 84° |
| 2026-05-07 14:54 | 55.09743 | -26.07974 | 37179 ft | 484 kts | 84° |
| 2026-05-07 14:55 | 55.09842 | -25.96318 | 37176 ft | 484 kts | 85° |
| 2026-05-07 14:55 | 55.09930 | -25.84587 | 37177 ft | 485 kts | 85° |
| 2026-05-07 14:56 | 55.10005 | -25.72856 | 37177 ft | 485 kts | 85° |
| 2026-05-07 14:56 | 55.10068 | -25.61146 | 37172 ft | 485 kts | 85° |
| 2026-05-07 14:57 | 55.10121 | -25.49441 | 37169 ft | 484 kts | 85° |
| 2026-05-07 14:57 | 55.10163 | -25.37702 | 37166 ft | 484 kts | 85° |
| 2026-05-07 14:58 | 55.10194 | -25.25997 | 37163 ft | 484 kts | 86° |
| 2026-05-07 14:58 | 55.10213 | -25.14315 | 37162 ft | 484 kts | 86° |
| 2026-05-07 14:59 | 55.10221 | -25.02629 | 37158 ft | 484 kts | 86° |
| 2026-05-07 14:59 | 55.10217 | -24.90935 | 37156 ft | 485 kts | 86° |
| 2026-05-07 15:00 | 55.10202 | -24.79178 | 37152 ft | 485 kts | 86° |
| 2026-05-07 15:00 | 55.10177 | -24.67448 | 37154 ft | 485 kts | 86° |
| 2026-05-07 15:01 | 55.10141 | -24.55783 | 37157 ft | 485 kts | 87° |
| 2026-05-07 15:01 | 55.10092 | -24.44077 | 37156 ft | 485 kts | 87° |
| 2026-05-07 15:02 | 55.10032 | -24.32358 | 37158 ft | 485 kts | 88° |
| 2026-05-07 15:02 | 55.09961 | -24.20583 | 37158 ft | 485 kts | 88° |
| 2026-05-07 15:03 | 55.09881 | -24.08905 | 37154 ft | 486 kts | 88° |
| 2026-05-07 15:03 | 55.09787 | -23.97143 | 37155 ft | 486 kts | 88° |
| 2026-05-07 15:04 | 55.09681 | -23.85446 | 37158 ft | 486 kts | 88° |
| 2026-05-07 15:04 | 55.09565 | -23.73709 | 37161 ft | 486 kts | 88° |
| 2026-05-07 15:05 | 55.09437 | -23.61907 | 37161 ft | 486 kts | 88° |
| 2026-05-07 15:05 | 55.09299 | -23.50160 | 37163 ft | 486 kts | 88° |
| 2026-05-07 15:06 | 55.09150 | -23.38452 | 37162 ft | 486 kts | 88° |
| 2026-05-07 15:06 | 55.08989 | -23.26730 | 37158 ft | 486 kts | 89° |
| 2026-05-07 15:07 | 55.08816 | -23.15002 | 37157 ft | 486 kts | 89° |
| 2026-05-07 15:07 | 55.08631 | -23.03198 | 37154 ft | 486 kts | 89° |
| 2026-05-07 15:08 | 55.08437 | -22.91528 | 37143 ft | 485 kts | 89° |
| 2026-05-07 15:08 | 55.08233 | -22.79840 | 37133 ft | 485 kts | 89° |
| 2026-05-07 15:09 | 55.08016 | -22.68123 | 37132 ft | 485 kts | 89° |
| 2026-05-07 15:09 | 55.07788 | -22.56423 | 37127 ft | 485 kts | 89° |
| 2026-05-07 15:10 | 55.07546 | -22.44621 | 37126 ft | 486 kts | 89° |
| 2026-05-07 15:10 | 55.07464 | -22.40717 | 37125 ft | 486 kts | 89° |
| 2026-05-07 15:11 | 55.07001 | -22.19769 | 37119 ft | 486 kts | 90° |
| 2026-05-07 15:11 | 55.06726 | -22.08018 | 37116 ft | 487 kts | 91° |
| 2026-05-07 15:12 | 55.06439 | -21.96249 | 37114 ft | 487 kts | 91° |
| 2026-05-07 15:12 | 55.06139 | -21.84502 | 37113 ft | 487 kts | 91° |
| 2026-05-07 15:13 | 55.05827 | -21.72728 | 37110 ft | 487 kts | 91° |
| 2026-05-07 15:13 | 55.05508 | -21.61007 | 37110 ft | 487 kts | 91° |
| 2026-05-07 15:14 | 55.05175 | -21.49245 | 37107 ft | 487 kts | 91° |
| 2026-05-07 15:14 | 55.04834 | -21.37514 | 37104 ft | 487 kts | 91° |
| 2026-05-07 15:15 | 55.04480 | -21.25810 | 37098 ft | 488 kts | 92° |
| 2026-05-07 15:15 | 55.04111 | -21.14042 | 37103 ft | 488 kts | 92° |
| 2026-05-07 15:16 | 55.03734 | -21.02308 | 37095 ft | 488 kts | 92° |
| 2026-05-07 15:16 | 55.03345 | -20.90564 | 37092 ft | 487 kts | 92° |
| 2026-05-07 15:17 | 55.02944 | -20.78784 | 37090 ft | 487 kts | 92° |
| 2026-05-07 15:17 | 55.02535 | -20.67086 | 37092 ft | 487 kts | 92° |
| 2026-05-07 15:18 | 55.02113 | -20.55322 | 37086 ft | 488 kts | 92° |
| 2026-05-07 15:18 | 55.01678 | -20.43565 | 37082 ft | 488 kts | 92° |
| 2026-05-07 15:19 | 55.01292 | -20.33325 | 37081 ft | 489 kts | 93° |
| 2026-05-07 15:19 | 55.00838 | -20.21572 | 37081 ft | 489 kts | 93° |
| 2026-05-07 15:20 | 55.00357 | -20.09746 | 37080 ft | 490 kts | 95° |
| 2026-05-07 15:20 | 54.99377 | -19.98084 | 37076 ft | 490 kts | 102° |
| 2026-05-07 15:21 | 54.97635 | -19.86705 | 37074 ft | 490 kts | 107° |
| 2026-05-07 15:21 | 54.95624 | -19.75427 | 37074 ft | 490 kts | 107° |
| 2026-05-07 15:22 | 54.93600 | -19.64121 | 37069 ft | 489 kts | 107° |
| 2026-05-07 15:22 | 54.91589 | -19.52914 | 37064 ft | 489 kts | 107° |
| 2026-05-07 15:23 | 54.89570 | -19.41709 | 37054 ft | 489 kts | 107° |
| 2026-05-07 15:23 | 54.87539 | -19.30486 | 37052 ft | 489 kts | 108° |
| 2026-05-07 15:24 | 54.85492 | -19.19252 | 37053 ft | 490 kts | 108° |
| 2026-05-07 15:24 | 54.83439 | -19.08057 | 37056 ft | 490 kts | 108° |
| 2026-05-07 15:25 | 54.81383 | -18.96910 | 37055 ft | 490 kts | 108° |
| 2026-05-07 15:25 | 54.79305 | -18.85711 | 37050 ft | 490 kts | 108° |
| 2026-05-07 15:26 | 54.77218 | -18.74526 | 37047 ft | 490 kts | 108° |
| 2026-05-07 15:26 | 54.75122 | -18.63363 | 37038 ft | 489 kts | 108° |
| 2026-05-07 15:27 | 54.73030 | -18.52288 | 37029 ft | 488 kts | 108° |
| 2026-05-07 15:27 | 54.70919 | -18.41179 | 37031 ft | 488 kts | 108° |
| 2026-05-07 15:28 | 54.68802 | -18.30097 | 37025 ft | 488 kts | 109° |
| 2026-05-07 15:28 | 54.66677 | -18.19038 | 37024 ft | 488 kts | 109° |
| 2026-05-07 15:29 | 54.64532 | -18.07940 | 37024 ft | 488 kts | 110° |
| 2026-05-07 15:29 | 54.62386 | -17.96907 | 37021 ft | 488 kts | 110° |
| 2026-05-07 15:30 | 54.60230 | -17.85881 | 37024 ft | 488 kts | 110° |
| 2026-05-07 15:30 | 54.58058 | -17.74844 | 37023 ft | 488 kts | 110° |
| 2026-05-07 15:31 | 54.55876 | -17.63805 | 37011 ft | 488 kts | 110° |
| 2026-05-07 15:31 | 54.53685 | -17.52790 | 37003 ft | 487 kts | 110° |
| 2026-05-07 15:32 | 54.51491 | -17.41823 | 37021 ft | 487 kts | 110° |
| 2026-05-07 15:32 | 54.49283 | -17.30837 | 37015 ft | 487 kts | 111° |
| 2026-05-07 15:33 | 54.47067 | -17.19881 | 37004 ft | 487 kts | 111° |
| 2026-05-07 15:33 | 54.44852 | -17.08991 | 37006 ft | 487 kts | 111° |
| 2026-05-07 15:34 | 54.42610 | -16.98027 | 36995 ft | 487 kts | 111° |
| 2026-05-07 15:34 | 54.40364 | -16.87109 | 36995 ft | 487 kts | 111° |
| 2026-05-07 15:35 | 54.38118 | -16.76248 | 36991 ft | 487 kts | 111° |
| 2026-05-07 15:35 | 54.35847 | -16.65323 | 36998 ft | 487 kts | 111° |
| 2026-05-07 15:36 | 54.33574 | -16.54449 | 36996 ft | 487 kts | 111° |
| 2026-05-07 15:36 | 54.31291 | -16.43583 | 36994 ft | 487 kts | 111° |
| 2026-05-07 15:37 | 54.28995 | -16.32716 | 36991 ft | 487 kts | 112° |
| 2026-05-07 15:37 | 54.26700 | -16.21910 | 36994 ft | 487 kts | 112° |
| 2026-05-07 15:38 | 54.24397 | -16.11124 | 37000 ft | 487 kts | 112° |
| 2026-05-07 15:38 | 54.22066 | -16.00262 | 36990 ft | 487 kts | 112° |
| 2026-05-07 15:39 | 54.19743 | -15.89499 | 36998 ft | 487 kts | 112° |
| 2026-05-07 15:39 | 54.17397 | -15.78683 | 36996 ft | 486 kts | 112° |
| 2026-05-07 15:40 | 54.15059 | -15.67960 | 36993 ft | 486 kts | 112° |
| 2026-05-07 15:40 | 54.12705 | -15.57214 | 36993 ft | 486 kts | 112° |
| 2026-05-07 15:41 | 54.10335 | -15.46458 | 36992 ft | 486 kts | 112° |
| 2026-05-07 15:41 | 54.07968 | -15.35754 | 36985 ft | 485 kts | 112° |
| 2026-05-07 15:42 | 54.05590 | -15.25059 | 36987 ft | 484 kts | 113° |
| 2026-05-07 15:42 | 54.03218 | -15.14406 | 36980 ft | 484 kts | 112° |
| 2026-05-07 15:43 | 54.01308 | -15.03455 | 36981 ft | 487 kts | 105° |
| 2026-05-07 15:43 | 54.00207 | -14.92186 | 36974 ft | 489 kts | 97° |
| 2026-05-07 15:44 | 53.99926 | -14.80676 | 36977 ft | 490 kts | 91° |
| 2026-05-07 15:44 | 53.99984 | -14.69159 | 36970 ft | 490 kts | 91° |
| 2026-05-07 15:45 | 54.00027 | -14.57627 | 36962 ft | 489 kts | 91° |
| 2026-05-07 15:45 | 54.00044 | -14.46138 | 36962 ft | 489 kts | 91° |
| 2026-05-07 15:46 | 54.00042 | -14.28849 | 36955 ft | 488 kts | 92° |
| 2026-05-07 15:47 | 54.00023 | -14.17376 | 36961 ft | 487 kts | 92° |
| 2026-05-07 15:47 | 53.99493 | -14.05987 | 36958 ft | 484 kts | 101° |
| 2026-05-07 15:48 | 53.97963 | -13.94985 | 36963 ft | 481 kts | 110° |
| 2026-05-07 15:48 | 53.95485 | -13.84540 | 36960 ft | 476 kts | 119° |
| 2026-05-07 15:49 | 53.92567 | -13.74525 | 36952 ft | 476 kts | 119° |
| 2026-05-07 15:49 | 53.89637 | -13.64532 | 36957 ft | 477 kts | 119° |
| 2026-05-07 15:50 | 53.86687 | -13.54466 | 36960 ft | 476 kts | 119° |
| 2026-05-07 15:50 | 53.83771 | -13.44534 | 36953 ft | 476 kts | 119° |
| 2026-05-07 15:51 | 53.80820 | -13.34519 | 36947 ft | 476 kts | 120° |
| 2026-05-07 15:51 | 53.77887 | -13.24606 | 36953 ft | 475 kts | 120° |
| 2026-05-07 15:52 | 53.74927 | -13.14647 | 36957 ft | 473 kts | 120° |
| 2026-05-07 15:52 | 53.71982 | -13.04778 | 36961 ft | 473 kts | 120° |
| 2026-05-07 15:53 | 53.69040 | -12.94959 | 36960 ft | 473 kts | 120° |
| 2026-05-07 15:53 | 53.66068 | -12.85080 | 36956 ft | 473 kts | 120° |
| 2026-05-07 15:54 | 53.63098 | -12.75247 | 36952 ft | 473 kts | 120° |
| 2026-05-07 15:54 | 53.60123 | -12.65440 | 36953 ft | 472 kts | 120° |
| 2026-05-07 15:55 | 53.57149 | -12.55675 | 36953 ft | 472 kts | 120° |
| 2026-05-07 15:55 | 53.54152 | -12.45876 | 36945 ft | 471 kts | 120° |
| 2026-05-07 15:56 | 53.51172 | -12.36170 | 36943 ft | 471 kts | 120° |
| 2026-05-07 15:56 | 53.48180 | -12.26465 | 36945 ft | 470 kts | 121° |
| 2026-05-07 15:57 | 53.45177 | -12.16765 | 36949 ft | 469 kts | 121° |
| 2026-05-07 15:57 | 53.42164 | -12.07072 | 36944 ft | 469 kts | 121° |
| 2026-05-07 15:58 | 53.39165 | -11.97459 | 36944 ft | 469 kts | 121° |
| 2026-05-07 15:58 | 53.36153 | -11.87849 | 36937 ft | 468 kts | 121° |
| 2026-05-07 15:59 | 53.33125 | -11.78224 | 36930 ft | 468 kts | 121° |
| 2026-05-07 15:59 | 53.30117 | -11.68697 | 36940 ft | 468 kts | 121° |
| 2026-05-07 16:00 | 53.27076 | -11.59103 | 36940 ft | 468 kts | 121° |
| 2026-05-07 16:00 | 53.24021 | -11.49507 | 36939 ft | 468 kts | 121° |
| 2026-05-07 16:01 | 53.20974 | -11.39975 | 36936 ft | 467 kts | 121° |
| 2026-05-07 16:01 | 53.17924 | -11.30463 | 36926 ft | 467 kts | 122° |
| 2026-05-07 16:02 | 53.14881 | -11.21015 | 36925 ft | 467 kts | 121° |
| 2026-05-07 16:02 | 53.11808 | -11.11515 | 36924 ft | 467 kts | 121° |
| 2026-05-07 16:03 | 53.08742 | -11.02067 | 36933 ft | 467 kts | 121° |
| 2026-05-07 16:03 | 53.05660 | -10.92604 | 36934 ft | 467 kts | 121° |
| 2026-05-07 16:04 | 53.02586 | -10.83205 | 36932 ft | 466 kts | 121° |
| 2026-05-07 16:04 | 52.99485 | -10.73762 | 36929 ft | 466 kts | 121° |
| 2026-05-07 16:05 | 52.96395 | -10.64388 | 36930 ft | 466 kts | 121° |
| 2026-05-07 16:05 | 52.93292 | -10.55009 | 36933 ft | 466 kts | 121° |
| 2026-05-07 16:06 | 52.90173 | -10.45620 | 36930 ft | 466 kts | 121° |
| 2026-05-07 16:06 | 52.87065 | -10.36293 | 36929 ft | 466 kts | 121° |
| 2026-05-07 16:07 | 52.83938 | -10.26950 | 36931 ft | 466 kts | 122° |
| 2026-05-07 16:07 | 52.80804 | -10.17621 | 36927 ft | 466 kts | 122° |
| 2026-05-07 16:08 | 52.77673 | -10.08335 | 36931 ft | 466 kts | 122° |
| 2026-05-07 16:08 | 52.74521 | -9.99019 | 36936 ft | 466 kts | 122° |
| 2026-05-07 16:09 | 52.71367 | -9.89741 | 36940 ft | 465 kts | 122° |
| 2026-05-07 16:09 | 52.68224 | -9.80520 | 36936 ft | 465 kts | 122° |
| 2026-05-07 16:10 | 52.65051 | -9.71251 | 36937 ft | 465 kts | 122° |
| 2026-05-07 16:10 | 52.61881 | -9.62021 | 36939 ft | 465 kts | 122° |
| 2026-05-07 16:11 | 52.58710 | -9.52827 | 36936 ft | 465 kts | 122° |
| 2026-05-07 16:11 | 52.55513 | -9.43585 | 36931 ft | 465 kts | 122° |
| 2026-05-07 16:12 | 52.52328 | -9.34418 | 36933 ft | 465 kts | 122° |
| 2026-05-07 16:12 | 52.49134 | -9.25255 | 36931 ft | 464 kts | 122° |
| 2026-05-07 16:13 | 52.45935 | -9.16118 | 36933 ft | 464 kts | 122° |
| 2026-05-07 16:13 | 52.42724 | -9.06973 | 36935 ft | 464 kts | 122° |
| 2026-05-07 16:14 | 52.39520 | -8.97884 | 36933 ft | 464 kts | 122° |
| 2026-05-07 16:14 | 52.36306 | -8.88799 | 36931 ft | 463 kts | 122° |
| 2026-05-07 16:15 | 52.33085 | -8.79723 | 36931 ft | 463 kts | 122° |
| 2026-05-07 16:15 | 52.29842 | -8.70625 | 36929 ft | 463 kts | 122° |
| 2026-05-07 16:16 | 52.26627 | -8.61635 | 36932 ft | 463 kts | 122° |
| 2026-05-07 16:16 | 52.23383 | -8.52598 | 36935 ft | 463 kts | 122° |
| 2026-05-07 16:17 | 52.20147 | -8.43613 | 36939 ft | 462 kts | 122° |
| 2026-05-07 16:17 | 52.16895 | -8.34615 | 36939 ft | 462 kts | 123° |
| 2026-05-07 16:18 | 52.13628 | -8.25607 | 36941 ft | 461 kts | 123° |
| 2026-05-07 16:18 | 52.10376 | -8.16676 | 36939 ft | 461 kts | 123° |
| 2026-05-07 16:19 | 52.07105 | -8.07720 | 36936 ft | 462 kts | 123° |
| 2026-05-07 16:19 | 52.03835 | -7.98803 | 36937 ft | 462 kts | 123° |
| 2026-05-07 16:20 | 52.00545 | -7.89863 | 36941 ft | 461 kts | 123° |
| 2026-05-07 16:20 | 51.97266 | -7.80977 | 36949 ft | 461 kts | 123° |
| 2026-05-07 16:21 | 51.93992 | -7.72139 | 36960 ft | 460 kts | 123° |
| 2026-05-07 16:21 | 51.90704 | -7.63296 | 36971 ft | 460 kts | 123° |
| 2026-05-07 16:22 | 51.87418 | -7.54488 | 36967 ft | 459 kts | 123° |
| 2026-05-07 16:22 | 51.84130 | -7.45704 | 36969 ft | 459 kts | 123° |
| 2026-05-07 16:23 | 51.80825 | -7.36903 | 36975 ft | 459 kts | 123° |
| 2026-05-07 16:23 | 51.77506 | -7.28094 | 36973 ft | 459 kts | 124° |
| 2026-05-07 16:24 | 51.74202 | -7.19354 | 36974 ft | 459 kts | 123° |
| 2026-05-07 16:24 | 51.70902 | -7.10652 | 36976 ft | 458 kts | 123° |
| 2026-05-07 16:25 | 51.67584 | -7.01924 | 36975 ft | 458 kts | 123° |
| 2026-05-07 16:25 | 51.64246 | -6.93184 | 36977 ft | 457 kts | 123° |
| 2026-05-07 16:26 | 51.61248 | -6.84251 | 36977 ft | 459 kts | 117° |
| 2026-05-07 16:26 | 51.58766 | -6.74805 | 36984 ft | 460 kts | 114° |
| 2026-05-07 16:27 | 51.56376 | -6.65338 | 36979 ft | 460 kts | 114° |
| 2026-05-07 16:27 | 51.53972 | -6.55858 | 36983 ft | 460 kts | 114° |
| 2026-05-07 16:28 | 51.51553 | -6.46373 | 36989 ft | 460 kts | 114° |
| 2026-05-07 16:28 | 51.49131 | -6.36914 | 36987 ft | 460 kts | 114° |
| 2026-05-07 16:29 | 51.46695 | -6.27443 | 36989 ft | 459 kts | 115° |
| 2026-05-07 16:29 | 51.44254 | -6.17994 | 36990 ft | 459 kts | 115° |
| 2026-05-07 16:30 | 51.41809 | -6.08570 | 36990 ft | 459 kts | 115° |
| 2026-05-07 16:30 | 51.39368 | -5.99199 | 36989 ft | 459 kts | 115° |
| 2026-05-07 16:31 | 51.36908 | -5.89792 | 36988 ft | 460 kts | 115° |
| 2026-05-07 16:31 | 51.34441 | -5.80397 | 36992 ft | 460 kts | 115° |
| 2026-05-07 16:32 | 51.31981 | -5.71067 | 36991 ft | 459 kts | 115° |
| 2026-05-07 16:32 | 51.29490 | -5.61662 | 36992 ft | 459 kts | 115° |
| 2026-05-07 16:33 | 51.27008 | -5.52325 | 36990 ft | 459 kts | 115° |
| 2026-05-07 16:33 | 51.24520 | -5.43006 | 36993 ft | 459 kts | 115° |
| 2026-05-07 16:34 | 51.22030 | -5.33714 | 36991 ft | 459 kts | 116° |
| 2026-05-07 16:34 | 51.19516 | -5.24374 | 36994 ft | 458 kts | 116° |
| 2026-05-07 16:35 | 51.16998 | -5.15056 | 36993 ft | 459 kts | 116° |
| 2026-05-07 16:35 | 51.14482 | -5.05782 | 36992 ft | 460 kts | 115° |
| 2026-05-07 16:36 | 51.11943 | -4.96456 | 36990 ft | 460 kts | 116° |
| 2026-05-07 16:36 | 51.09411 | -4.87199 | 36990 ft | 459 kts | 116° |
| 2026-05-07 16:37 | 51.06861 | -4.77911 | 36989 ft | 459 kts | 115° |
| 2026-05-07 16:37 | 51.04315 | -4.68677 | 36989 ft | 459 kts | 115° |
| 2026-05-07 16:38 | 51.01765 | -4.59459 | 36988 ft | 459 kts | 116° |
| 2026-05-07 16:38 | 50.99200 | -4.50224 | 36987 ft | 459 kts | 115° |
| 2026-05-07 16:39 | 50.96619 | -4.40970 | 36983 ft | 460 kts | 115° |
| 2026-05-07 16:39 | 50.94041 | -4.31760 | 36984 ft | 460 kts | 116° |
| 2026-05-07 16:40 | 50.91445 | -4.22525 | 36986 ft | 460 kts | 116° |
| 2026-05-07 16:40 | 50.88849 | -4.13311 | 36985 ft | 460 kts | 116° |
| 2026-05-07 16:41 | 50.86238 | -4.04073 | 36983 ft | 461 kts | 116° |
| 2026-05-07 16:41 | 50.83618 | -3.94861 | 36984 ft | 461 kts | 116° |
| 2026-05-07 16:42 | 50.81264 | -3.85452 | 36987 ft | 462 kts | 110° |
| 2026-05-07 16:42 | 50.79248 | -3.75843 | 36991 ft | 462 kts | 110° |
| 2026-05-07 16:43 | 50.77244 | -3.66265 | 36995 ft | 462 kts | 110° |
| 2026-05-07 16:43 | 50.75229 | -3.56698 | 37003 ft | 462 kts | 110° |
| 2026-05-07 16:44 | 50.73198 | -3.47103 | 37009 ft | 463 kts | 110° |
| 2026-05-07 16:44 | 50.71149 | -3.37471 | 36811 ft | 463 kts | 110° |
| 2026-05-07 16:44 | 50.70134 | -3.32706 | 36624 ft | 460 kts | 111° |
| 2026-05-07 16:45 | 50.69116 | -3.27942 | 36344 ft | 458 kts | 111° |
| 2026-05-07 16:45 | 50.68114 | -3.23260 | 35889 ft | 458 kts | 111° |
| 2026-05-07 16:45 | 50.67094 | -3.18519 | 35306 ft | 460 kts | 111° |
| 2026-05-07 16:45 | 50.66062 | -3.13741 | 34522 ft | 463 kts | 111° |
| 2026-05-07 16:46 | 50.65136 | -3.08888 | 33729 ft | 464 kts | 106° |
| 2026-05-07 16:46 | 50.64467 | -3.03959 | 32988 ft | 464 kts | 101° |
| 2026-05-07 16:46 | 50.64064 | -2.98970 | 32258 ft | 465 kts | 96° |
| 2026-05-07 16:46 | 50.63933 | -2.93913 | 31503 ft | 465 kts | 91° |
| 2026-05-07 16:47 | 50.64081 | -2.88840 | 30920 ft | 462 kts | 86° |
| 2026-05-07 16:47 | 50.64490 | -2.83883 | 30454 ft | 455 kts | 82° |
| 2026-05-07 16:47 | 50.65033 | -2.79023 | 29926 ft | 451 kts | 81° |
| 2026-05-07 16:47 | 50.65596 | -2.74238 | 29397 ft | 447 kts | 81° |
| 2026-05-07 16:48 | 50.66156 | -2.69446 | 28844 ft | 444 kts | 81° |
| 2026-05-07 16:48 | 50.66699 | -2.64682 | 28324 ft | 440 kts | 81° |
| 2026-05-07 16:48 | 50.67223 | -2.59997 | 27824 ft | 435 kts | 81° |
| 2026-05-07 16:48 | 50.67704 | -2.55313 | 27327 ft | 431 kts | 84° |
| 2026-05-07 16:49 | 50.67946 | -2.50702 | 26842 ft | 426 kts | 89° |
| 2026-05-07 16:49 | 50.67928 | -2.46029 | 26754 ft | 424 kts | 94° |
| 2026-05-07 16:49 | 50.67750 | -2.41389 | 26782 ft | 426 kts | 95° |
| 2026-05-07 16:49 | 50.67547 | -2.36737 | 26808 ft | 427 kts | 95° |
| 2026-05-07 16:50 | 50.67340 | -2.32071 | 26833 ft | 427 kts | 96° |
| 2026-05-07 16:50 | 50.67138 | -2.27468 | 26857 ft | 427 kts | 96° |
| 2026-05-07 16:50 | 50.66934 | -2.22762 | 26882 ft | 427 kts | 95° |
| 2026-05-07 16:50 | 50.66732 | -2.18104 | 26905 ft | 428 kts | 95° |
| 2026-05-07 16:51 | 50.66528 | -2.13453 | 26923 ft | 428 kts | 95° |
| 2026-05-07 16:51 | 50.66323 | -2.08825 | 26918 ft | 428 kts | 95° |
| 2026-05-07 16:51 | 50.66128 | -2.04167 | 26426 ft | 429 kts | 94° |
| 2026-05-07 16:51 | 50.66075 | -1.99442 | 25854 ft | 427 kts | 91° |
| 2026-05-07 16:52 | 50.66120 | -1.94857 | 25342 ft | 423 kts | 90° |
| 2026-05-07 16:52 | 50.66180 | -1.90246 | 24836 ft | 419 kts | 90° |
| 2026-05-07 16:52 | 50.66239 | -1.85675 | 24342 ft | 415 kts | 90° |
| 2026-05-07 16:52 | 50.66295 | -1.81193 | 23856 ft | 412 kts | 90° |
| 2026-05-07 16:53 | 50.66346 | -1.76743 | 23362 ft | 408 kts | 90° |
| 2026-05-07 16:53 | 50.66396 | -1.72258 | 22878 ft | 405 kts | 90° |
| 2026-05-07 16:53 | 50.66443 | -1.67877 | 22401 ft | 402 kts | 90° |
| 2026-05-07 16:53 | 50.66486 | -1.63538 | 21921 ft | 399 kts | 90° |
| 2026-05-07 16:54 | 50.66527 | -1.59180 | 21448 ft | 396 kts | 90° |
| 2026-05-07 16:54 | 50.66566 | -1.54851 | 20960 ft | 393 kts | 90° |
| 2026-05-07 16:54 | 50.66548 | -1.50656 | 20837 ft | 389 kts | 92° |
| 2026-05-07 16:54 | 50.66483 | -1.46376 | 20643 ft | 392 kts | 92° |
| 2026-05-07 16:55 | 50.66415 | -1.42102 | 20136 ft | 390 kts | 92° |
| 2026-05-07 16:55 | 50.66357 | -1.37858 | 19646 ft | 388 kts | 90° |
| 2026-05-07 16:55 | 50.66596 | -1.33633 | 19161 ft | 386 kts | 81° |
| 2026-05-07 16:55 | 50.67285 | -1.29626 | 18677 ft | 384 kts | 71° |
| 2026-05-07 16:56 | 50.68251 | -1.25734 | 18211 ft | 382 kts | 68° |
| 2026-05-07 16:56 | 50.69228 | -1.21881 | 17754 ft | 379 kts | 72° |
| 2026-05-07 16:56 | 50.70647 | -1.13972 | 17028 ft | 372 kts | 76° |
| 2026-05-07 16:57 | 50.71310 | -1.10041 | 16700 ft | 371 kts | 76° |
| 2026-05-07 16:57 | 50.71976 | -1.06178 | 16384 ft | 369 kts | 75° |
| 2026-05-07 16:57 | 50.72662 | -1.02277 | 16067 ft | 367 kts | 75° |
| 2026-05-07 16:57 | 50.73352 | -0.98393 | 15750 ft | 365 kts | 75° |
| 2026-05-07 16:58 | 50.74033 | -0.94574 | 15436 ft | 363 kts | 75° |
| 2026-05-07 16:58 | 50.74715 | -0.90754 | 15125 ft | 361 kts | 75° |
| 2026-05-07 16:58 | 50.75392 | -0.86964 | 14813 ft | 359 kts | 75° |
| 2026-05-07 16:58 | 50.76061 | -0.83207 | 14449 ft | 357 kts | 75° |
| 2026-05-07 16:59 | 50.76728 | -0.79447 | 14036 ft | 354 kts | 75° |
| 2026-05-07 16:59 | 50.77388 | -0.75727 | 13610 ft | 352 kts | 75° |
| 2026-05-07 16:59 | 50.78030 | -0.72066 | 13254 ft | 346 kts | 75° |
| 2026-05-07 16:59 | 50.78655 | -0.68432 | 12926 ft | 339 kts | 75° |
| 2026-05-07 17:00 | 50.79265 | -0.64861 | 12557 ft | 334 kts | 75° |
| 2026-05-07 17:00 | 50.79863 | -0.61358 | 12163 ft | 327 kts | 75° |
| 2026-05-07 17:00 | 50.80440 | -0.57972 | 11668 ft | 317 kts | 75° |
| 2026-05-07 17:00 | 50.80999 | -0.54691 | 11146 ft | 308 kts | 75° |
| 2026-05-07 17:01 | 50.81544 | -0.51499 | 10705 ft | 296 kts | 75° |
| 2026-05-07 17:01 | 50.82078 | -0.48364 | 10439 ft | 294 kts | 75° |
| 2026-05-07 17:01 | 50.82603 | -0.45278 | 10305 ft | 294 kts | 75° |
| 2026-05-07 17:01 | 50.83134 | -0.42148 | 10184 ft | 293 kts | 75° |
| 2026-05-07 17:02 | 50.83659 | -0.39055 | 10063 ft | 293 kts | 75° |
| 2026-05-07 17:02 | 50.84195 | -0.35966 | 9803 ft | 291 kts | 71° |
| 2026-05-07 17:02 | 50.85189 | -0.33211 | 9511 ft | 286 kts | 46° |
| 2026-05-07 17:02 | 50.86795 | -0.31480 | 9149 ft | 283 kts | 20° |
| 2026-05-07 17:03 | 50.88714 | -0.31071 | 8761 ft | 279 kts | 353° |
| 2026-05-07 17:03 | 50.90538 | -0.31964 | 8369 ft | 277 kts | 335° |
| 2026-05-07 17:03 | 50.92255 | -0.33327 | 7984 ft | 269 kts | 332° |
| 2026-05-07 17:03 | 50.93855 | -0.34702 | 7652 ft | 257 kts | 332° |
| 2026-05-07 17:04 | 50.95398 | -0.36057 | 7327 ft | 253 kts | 332° |
| 2026-05-07 17:04 | 50.96930 | -0.37422 | 7023 ft | 252 kts | 330° |
| 2026-05-07 17:04 | 50.98255 | -0.39162 | 6764 ft | 249 kts | 309° |
| 2026-05-07 17:04 | 50.99231 | -0.41414 | 6468 ft | 245 kts | 303° |
| 2026-05-07 17:05 | 51.00100 | -0.43689 | 6057 ft | 240 kts | 301° |
| 2026-05-07 17:05 | 51.00940 | -0.45940 | 5673 ft | 232 kts | 301° |
| 2026-05-07 17:05 | 51.01735 | -0.48080 | 5316 ft | 225 kts | 301° |
| 2026-05-07 17:05 | 51.02522 | -0.50199 | 4958 ft | 218 kts | 301° |
| 2026-05-07 17:06 | 51.03274 | -0.52224 | 4603 ft | 213 kts | 301° |
| 2026-05-07 17:06 | 51.04017 | -0.54225 | 4268 ft | 206 kts | 301° |
| 2026-05-07 17:06 | 51.04731 | -0.56123 | 4110 ft | 196 kts | 304° |
| 2026-05-07 17:06 | 51.05727 | -0.57505 | 3975 ft | 192 kts | 341° |
| 2026-05-07 17:07 | 51.07015 | -0.57586 | 3974 ft | 189 kts | 20° |
| 2026-05-07 17:07 | 51.08087 | -0.56425 | 3992 ft | 187 kts | 46° |
| 2026-05-07 17:07 | 51.08967 | -0.54892 | 3985 ft | 187 kts | 51° |
| 2026-05-07 17:07 | 51.09707 | -0.53201 | 3976 ft | 186 kts | 63° |
| 2026-05-07 17:08 | 51.10206 | -0.51324 | 3960 ft | 186 kts | 72° |
| 2026-05-07 17:08 | 51.10583 | -0.49362 | 3775 ft | 185 kts | 75° |
| 2026-05-07 17:08 | 51.10920 | -0.47383 | 3526 ft | 184 kts | 77° |
| 2026-05-07 17:08 | 51.11217 | -0.45421 | 3283 ft | 183 kts | 78° |
| 2026-05-07 17:09 | 51.11491 | -0.43473 | 3044 ft | 182 kts | 79° |
| 2026-05-07 17:09 | 51.11757 | -0.41516 | 2807 ft | 181 kts | 79° |
| 2026-05-07 17:09 | 51.12017 | -0.39578 | 2562 ft | 176 kts | 79° |
| 2026-05-07 17:09 | 51.12270 | -0.37692 | 2324 ft | 171 kts | 79° |
| 2026-05-07 17:10 | 51.12515 | -0.35879 | 2103 ft | 169 kts | 79° |
| 2026-05-07 17:10 | 51.12764 | -0.34043 | 1905 ft | 164 kts | 80° |
| 2026-05-07 17:10 | 51.12998 | -0.32325 | 1684 ft | 159 kts | 80° |
| 2026-05-07 17:10 | 51.13235 | -0.30575 | 1497 ft | 169 kts | 80° |
| 2026-05-07 17:11 | 51.13486 | -0.28733 | 1248 ft | 165 kts | 79° |
| 2026-05-07 17:11 | 51.13718 | -0.27051 | 1010 ft | 150 kts | 79° |
| 2026-05-07 17:11 | 51.13929 | -0.25500 | 800 ft | 135 kts | 80° |
| 2026-05-07 17:11 | 51.14125 | -0.24059 | 640 ft | 132 kts | 80° |
| 2026-05-07 17:12 | 51.14316 | -0.22649 | 478 ft | 131 kts | 81° |
| 2026-05-07 17:12 | 51.14510 | -0.21233 | 308 ft | 130 kts | 80° |
| 2026-05-07 17:12 | 51.14701 | -0.19851 | 202 ft | 121 kts | 80° |
| 2026-05-07 17:12 | 51.14852 | -0.18744 | 200 ft | 79 kts | 76° |
| 2026-05-07 17:13 | 51.14943 | -0.18101 | 200 ft | 44 kts | 69° |
| 2026-05-07 17:13 | 51.15057 | -0.17792 | 200 ft | 11 kts | 46° |
| 2026-05-07 17:13 | 51.15123 | -0.17755 | 199 ft | 10 kts | 355° |
| 2026-05-07 17:13 | 51.15161 | -0.17749 | 199 ft | 5 kts | 35° |
| 2026-05-07 17:14 | 51.15181 | -0.17693 | 200 ft | 6 kts | 75° |
| 2026-05-07 17:14 | 51.15192 | -0.17606 | 199 ft | 9 kts | 77° |
| 2026-05-07 17:14 | 51.15206 | -0.17504 | 199 ft | 4 kts | 77° |
| 2026-05-07 17:14 | 51.15212 | -0.17463 | 200 ft | 3 kts | 76° |
| 2026-05-07 17:15 | 51.15222 | -0.17399 | 200 ft | 8 kts | 77° |
| 2026-05-07 17:15 | 51.15237 | -0.17292 | 199 ft | 11 kts | 78° |
| 2026-05-07 17:15 | 51.15259 | -0.17153 | 199 ft | 13 kts | 76° |
| 2026-05-07 17:15 | 51.15279 | -0.17000 | 200 ft | 14 kts | 78° |
| 2026-05-07 17:16 | 51.15301 | -0.16839 | 199 ft | 15 kts | 78° |
| 2026-05-07 17:16 | 51.15310 | -0.16694 | 199 ft | 12 kts | 114° |
| 2026-05-07 17:16 | 51.15287 | -0.16582 | 199 ft | 11 kts | 78° |
| 2026-05-07 17:16 | 51.15301 | -0.16461 | 200 ft | 10 kts | 83° |
| 2026-05-07 17:17 | 51.15311 | -0.16359 | 200 ft | 6 kts | 75° |
| 2026-05-07 17:17 | 51.15343 | -0.16337 | 199 ft | 4 kts | 358° |
| 2026-05-07 17:17 | 51.15361 | -0.16338 | 200 ft | 0 kts | 357° |
| 2026-05-07 17:17 | 51.15366 | -0.16338 | 199 ft | 0 kts | 357° |